<?xml version="1.0" encoding="UTF-8" standalone="no" ?>
<gpx xmlns="http://www.topografix.com/GPX/1/1" xmlns:xsi="http://www.w3.org/2001/XMLSchema-instance" xsi:schemaLocation="http://www.topografix.com/GPX/1/1 http://www.topografix.com/GPX/1/1/gpx.xsd" version="1.1" creator="VisuGPX - https://www.visugpx.com">
  <metadata>
    <name>Randonnée au départ de Gretz-sur-Loing</name>
    <desc><![CDATA[randonnée du 03/06/2014 avec visite du Tacot des Lac]]></desc>
  </metadata>
  <trk>
    <name><![CDATA[2014-06-03 08:58]]></name>
    <desc><![CDATA[<h1>OruxMaps</h1><br /><hr align="center" width="480" style="height: 2px; width: 517px"/><h2>Nom: 2014-06-03 08:58</h2><br /><p>Temps de départ: 06/03/2014 08:58</p><p>Temps d'arrivée: 06/03/2014 14:01</p><p>Distance: 15,7 km (05:02)</p><p>Temps déplacement: 03:55</p><p>Vitesse moyenne: 3,1 km/h</p><p>Vitesse moyenne: 4 km/h</p><p>Vitess Max.: 8,4 km/h</p><p>Altitude minimale: 44 m</p><p>Altitude maximale: 99 m</p><p>Vitesse d'élévation: 170,5 m/h</p><p>Vitesse de descente: -168,8 m/h</p><p>Gain Altitude: 303 m</p><p>Perte Altitude: -323 m</p><p>Temps d'élévation: 01:46</p><p>Temps de descente: 01:55</p><hr align="center" width="480" style="height: 2px; width: 517px"/>]]></desc>
    <trkseg>
      <trkpt lat="48.31348" lon="2.70722">
        <ele>68.34</ele>
        <time>2014-06-03T06:58:47Z</time>
      </trkpt>
      <trkpt lat="48.31366" lon="2.70722">
        <ele>64.84</ele>
        <time>2014-06-03T07:06:06Z</time>
      </trkpt>
      <trkpt lat="48.31358" lon="2.70747">
        <ele>58.36</ele>
        <time>2014-06-03T07:07:26Z</time>
      </trkpt>
      <trkpt lat="48.31348" lon="2.7077">
        <ele>59.34</ele>
        <time>2014-06-03T07:08:07Z</time>
      </trkpt>
      <trkpt lat="48.31335" lon="2.70749">
        <ele>57.56</ele>
        <time>2014-06-03T07:09:30Z</time>
      </trkpt>
      <trkpt lat="48.31321" lon="2.70731">
        <ele>57.27</ele>
        <time>2014-06-03T07:09:49Z</time>
      </trkpt>
      <trkpt lat="48.31308" lon="2.70713">
        <ele>53.97</ele>
        <time>2014-06-03T07:10:11Z</time>
      </trkpt>
      <trkpt lat="48.31295" lon="2.70692">
        <ele>56.33</ele>
        <time>2014-06-03T07:10:28Z</time>
      </trkpt>
      <trkpt lat="48.31283" lon="2.70672">
        <ele>60.55</ele>
        <time>2014-06-03T07:10:40Z</time>
      </trkpt>
      <trkpt lat="48.3127" lon="2.70652">
        <ele>58.35</ele>
        <time>2014-06-03T07:10:55Z</time>
      </trkpt>
      <trkpt lat="48.31257" lon="2.70632">
        <ele>58.19</ele>
        <time>2014-06-03T07:11:07Z</time>
      </trkpt>
      <trkpt lat="48.31247" lon="2.70609">
        <ele>61.11</ele>
        <time>2014-06-03T07:11:24Z</time>
      </trkpt>
      <trkpt lat="48.31237" lon="2.70586">
        <ele>58.98</ele>
        <time>2014-06-03T07:11:39Z</time>
      </trkpt>
      <trkpt lat="48.31225" lon="2.70564">
        <ele>55.1</ele>
        <time>2014-06-03T07:11:58Z</time>
      </trkpt>
      <trkpt lat="48.31212" lon="2.70546">
        <ele>54.32</ele>
        <time>2014-06-03T07:12:13Z</time>
      </trkpt>
      <trkpt lat="48.31197" lon="2.70531">
        <ele>58.9</ele>
        <time>2014-06-03T07:12:27Z</time>
      </trkpt>
      <trkpt lat="48.31179" lon="2.70518">
        <ele>62.5</ele>
        <time>2014-06-03T07:12:39Z</time>
      </trkpt>
      <trkpt lat="48.31161" lon="2.70518">
        <ele>57.36</ele>
        <time>2014-06-03T07:13:05Z</time>
      </trkpt>
      <trkpt lat="48.31145" lon="2.70535">
        <ele>48.41</ele>
        <time>2014-06-03T07:13:22Z</time>
      </trkpt>
      <trkpt lat="48.31132" lon="2.70556">
        <ele>51.73</ele>
        <time>2014-06-03T07:13:36Z</time>
      </trkpt>
      <trkpt lat="48.31119" lon="2.70576">
        <ele>49.81</ele>
        <time>2014-06-03T07:13:49Z</time>
      </trkpt>
      <trkpt lat="48.31106" lon="2.70599">
        <ele>52.7</ele>
        <time>2014-06-03T07:14:01Z</time>
      </trkpt>
      <trkpt lat="48.31093" lon="2.70618">
        <ele>58.47</ele>
        <time>2014-06-03T07:14:15Z</time>
      </trkpt>
      <trkpt lat="48.31082" lon="2.7064">
        <ele>56.36</ele>
        <time>2014-06-03T07:14:29Z</time>
      </trkpt>
      <trkpt lat="48.31072" lon="2.70663">
        <ele>64.3</ele>
        <time>2014-06-03T07:14:40Z</time>
      </trkpt>
      <trkpt lat="48.31062" lon="2.70686">
        <ele>60.65</ele>
        <time>2014-06-03T07:14:57Z</time>
      </trkpt>
      <trkpt lat="48.31046" lon="2.70699">
        <ele>60.04</ele>
        <time>2014-06-03T07:15:11Z</time>
      </trkpt>
      <trkpt lat="48.31029" lon="2.70708">
        <ele>59.23</ele>
        <time>2014-06-03T07:15:32Z</time>
      </trkpt>
      <trkpt lat="48.3101" lon="2.70711">
        <ele>64.69</ele>
        <time>2014-06-03T07:15:51Z</time>
      </trkpt>
      <trkpt lat="48.30995" lon="2.70725">
        <ele>67.32</ele>
        <time>2014-06-03T07:16:05Z</time>
      </trkpt>
      <trkpt lat="48.30981" lon="2.70743">
        <ele>69.89</ele>
        <time>2014-06-03T07:16:20Z</time>
      </trkpt>
      <trkpt lat="48.30964" lon="2.70755">
        <ele>65.73</ele>
        <time>2014-06-03T07:16:41Z</time>
      </trkpt>
      <trkpt lat="48.30949" lon="2.7077">
        <ele>64.43</ele>
        <time>2014-06-03T07:17:25Z</time>
      </trkpt>
      <trkpt lat="48.30934" lon="2.70787">
        <ele>60.72</ele>
        <time>2014-06-03T07:18:30Z</time>
      </trkpt>
      <trkpt lat="48.30914" lon="2.70792">
        <ele>60.06</ele>
        <time>2014-06-03T07:18:41Z</time>
      </trkpt>
      <trkpt lat="48.30926" lon="2.70771">
        <ele>62.76</ele>
        <time>2014-06-03T07:19:05Z</time>
      </trkpt>
      <trkpt lat="48.30946" lon="2.70776">
        <ele>58.91</ele>
        <time>2014-06-03T07:19:17Z</time>
      </trkpt>
      <trkpt lat="48.30954" lon="2.70801">
        <ele>57.88</ele>
        <time>2014-06-03T07:19:28Z</time>
      </trkpt>
      <trkpt lat="48.30962" lon="2.70827">
        <ele>56.44</ele>
        <time>2014-06-03T07:19:40Z</time>
      </trkpt>
      <trkpt lat="48.30974" lon="2.70848">
        <ele>59.84</ele>
        <time>2014-06-03T07:19:59Z</time>
      </trkpt>
      <trkpt lat="48.30985" lon="2.7087">
        <ele>59.31</ele>
        <time>2014-06-03T07:20:17Z</time>
      </trkpt>
      <trkpt lat="48.30991" lon="2.70896">
        <ele>58.61</ele>
        <time>2014-06-03T07:20:33Z</time>
      </trkpt>
      <trkpt lat="48.30998" lon="2.70922">
        <ele>55.03</ele>
        <time>2014-06-03T07:20:48Z</time>
      </trkpt>
      <trkpt lat="48.31008" lon="2.70946">
        <ele>53.51</ele>
        <time>2014-06-03T07:21:03Z</time>
      </trkpt>
      <trkpt lat="48.31016" lon="2.70971">
        <ele>57.72</ele>
        <time>2014-06-03T07:21:16Z</time>
      </trkpt>
      <trkpt lat="48.31025" lon="2.70995">
        <ele>59.64</ele>
        <time>2014-06-03T07:21:29Z</time>
      </trkpt>
      <trkpt lat="48.3103" lon="2.71023">
        <ele>62.48</ele>
        <time>2014-06-03T07:21:44Z</time>
      </trkpt>
      <trkpt lat="48.31031" lon="2.71051">
        <ele>62.22</ele>
        <time>2014-06-03T07:22:00Z</time>
      </trkpt>
      <trkpt lat="48.31036" lon="2.71078">
        <ele>53.84</ele>
        <time>2014-06-03T07:22:16Z</time>
      </trkpt>
      <trkpt lat="48.31046" lon="2.71102">
        <ele>56.84</ele>
        <time>2014-06-03T07:22:34Z</time>
      </trkpt>
      <trkpt lat="48.31049" lon="2.71128">
        <ele>57.32</ele>
        <time>2014-06-03T07:22:47Z</time>
      </trkpt>
      <trkpt lat="48.31058" lon="2.71153">
        <ele>58.53</ele>
        <time>2014-06-03T07:23:01Z</time>
      </trkpt>
      <trkpt lat="48.31062" lon="2.71179">
        <ele>55</ele>
        <time>2014-06-03T07:23:15Z</time>
      </trkpt>
      <trkpt lat="48.31062" lon="2.71206">
        <ele>57.34</ele>
        <time>2014-06-03T07:23:48Z</time>
      </trkpt>
      <trkpt lat="48.31066" lon="2.71234">
        <ele>52.41</ele>
        <time>2014-06-03T07:24:00Z</time>
      </trkpt>
      <trkpt lat="48.31072" lon="2.71259">
        <ele>55.82</ele>
        <time>2014-06-03T07:24:13Z</time>
      </trkpt>
      <trkpt lat="48.3108" lon="2.71284">
        <ele>57.56</ele>
        <time>2014-06-03T07:24:26Z</time>
      </trkpt>
      <trkpt lat="48.31089" lon="2.71308">
        <ele>60.02</ele>
        <time>2014-06-03T07:24:43Z</time>
      </trkpt>
      <trkpt lat="48.31093" lon="2.71335">
        <ele>57.83</ele>
        <time>2014-06-03T07:24:56Z</time>
      </trkpt>
      <trkpt lat="48.31098" lon="2.71362">
        <ele>52.48</ele>
        <time>2014-06-03T07:25:10Z</time>
      </trkpt>
      <trkpt lat="48.31105" lon="2.71388">
        <ele>53.84</ele>
        <time>2014-06-03T07:25:24Z</time>
      </trkpt>
      <trkpt lat="48.31114" lon="2.71412">
        <ele>54.25</ele>
        <time>2014-06-03T07:25:38Z</time>
      </trkpt>
      <trkpt lat="48.31122" lon="2.71437">
        <ele>51.72</ele>
        <time>2014-06-03T07:25:52Z</time>
      </trkpt>
      <trkpt lat="48.3113" lon="2.71462">
        <ele>55.23</ele>
        <time>2014-06-03T07:26:06Z</time>
      </trkpt>
      <trkpt lat="48.31136" lon="2.71488">
        <ele>59.96</ele>
        <time>2014-06-03T07:26:20Z</time>
      </trkpt>
      <trkpt lat="48.31142" lon="2.71516">
        <ele>59.36</ele>
        <time>2014-06-03T07:26:35Z</time>
      </trkpt>
      <trkpt lat="48.31151" lon="2.7154">
        <ele>61.25</ele>
        <time>2014-06-03T07:26:48Z</time>
      </trkpt>
      <trkpt lat="48.3116" lon="2.71565">
        <ele>57.88</ele>
        <time>2014-06-03T07:27:03Z</time>
      </trkpt>
      <trkpt lat="48.31165" lon="2.71592">
        <ele>58.9</ele>
        <time>2014-06-03T07:27:19Z</time>
      </trkpt>
      <trkpt lat="48.31179" lon="2.71612">
        <ele>66.91</ele>
        <time>2014-06-03T07:27:32Z</time>
      </trkpt>
      <trkpt lat="48.3118" lon="2.7164">
        <ele>61.13</ele>
        <time>2014-06-03T07:27:46Z</time>
      </trkpt>
      <trkpt lat="48.31186" lon="2.71667">
        <ele>59.31</ele>
        <time>2014-06-03T07:28:02Z</time>
      </trkpt>
      <trkpt lat="48.31194" lon="2.71692">
        <ele>60.35</ele>
        <time>2014-06-03T07:28:16Z</time>
      </trkpt>
      <trkpt lat="48.31202" lon="2.71716">
        <ele>57.57</ele>
        <time>2014-06-03T07:28:31Z</time>
      </trkpt>
      <trkpt lat="48.31209" lon="2.71743">
        <ele>58.72</ele>
        <time>2014-06-03T07:28:47Z</time>
      </trkpt>
      <trkpt lat="48.31215" lon="2.71769">
        <ele>58.89</ele>
        <time>2014-06-03T07:29:01Z</time>
      </trkpt>
      <trkpt lat="48.31222" lon="2.71794">
        <ele>58.97</ele>
        <time>2014-06-03T07:29:15Z</time>
      </trkpt>
      <trkpt lat="48.31229" lon="2.71819">
        <ele>59.73</ele>
        <time>2014-06-03T07:29:29Z</time>
      </trkpt>
      <trkpt lat="48.31239" lon="2.71842">
        <ele>62.21</ele>
        <time>2014-06-03T07:29:43Z</time>
      </trkpt>
      <trkpt lat="48.31243" lon="2.7187">
        <ele>55.9</ele>
        <time>2014-06-03T07:29:59Z</time>
      </trkpt>
      <trkpt lat="48.31252" lon="2.71893">
        <ele>54.01</ele>
        <time>2014-06-03T07:30:14Z</time>
      </trkpt>
      <trkpt lat="48.31262" lon="2.71918">
        <ele>61.96</ele>
        <time>2014-06-03T07:30:30Z</time>
      </trkpt>
      <trkpt lat="48.31271" lon="2.71942">
        <ele>65.64</ele>
        <time>2014-06-03T07:30:44Z</time>
      </trkpt>
      <trkpt lat="48.31281" lon="2.71967">
        <ele>59.61</ele>
        <time>2014-06-03T07:31:04Z</time>
      </trkpt>
      <trkpt lat="48.31292" lon="2.7199">
        <ele>60.08</ele>
        <time>2014-06-03T07:31:15Z</time>
      </trkpt>
      <trkpt lat="48.31304" lon="2.72012">
        <ele>61.33</ele>
        <time>2014-06-03T07:31:29Z</time>
      </trkpt>
      <trkpt lat="48.31317" lon="2.72032">
        <ele>57.04</ele>
        <time>2014-06-03T07:31:44Z</time>
      </trkpt>
      <trkpt lat="48.31329" lon="2.72054">
        <ele>55.25</ele>
        <time>2014-06-03T07:32:00Z</time>
      </trkpt>
      <trkpt lat="48.31345" lon="2.7207">
        <ele>55.47</ele>
        <time>2014-06-03T07:32:14Z</time>
      </trkpt>
      <trkpt lat="48.3136" lon="2.72087">
        <ele>54.38</ele>
        <time>2014-06-03T07:32:29Z</time>
      </trkpt>
      <trkpt lat="48.31372" lon="2.72109">
        <ele>56.3</ele>
        <time>2014-06-03T07:32:45Z</time>
      </trkpt>
      <trkpt lat="48.31386" lon="2.72128">
        <ele>54.75</ele>
        <time>2014-06-03T07:33:00Z</time>
      </trkpt>
      <trkpt lat="48.314" lon="2.72146">
        <ele>55.34</ele>
        <time>2014-06-03T07:33:14Z</time>
      </trkpt>
      <trkpt lat="48.31413" lon="2.72166">
        <ele>55.45</ele>
        <time>2014-06-03T07:33:29Z</time>
      </trkpt>
      <trkpt lat="48.31428" lon="2.72183">
        <ele>58.78</ele>
        <time>2014-06-03T07:33:42Z</time>
      </trkpt>
      <trkpt lat="48.31442" lon="2.72203">
        <ele>58.19</ele>
        <time>2014-06-03T07:33:57Z</time>
      </trkpt>
      <trkpt lat="48.31453" lon="2.72224">
        <ele>56.98</ele>
        <time>2014-06-03T07:34:13Z</time>
      </trkpt>
      <trkpt lat="48.31463" lon="2.72248">
        <ele>53.63</ele>
        <time>2014-06-03T07:34:30Z</time>
      </trkpt>
      <trkpt lat="48.31471" lon="2.72273">
        <ele>56</ele>
        <time>2014-06-03T07:34:55Z</time>
      </trkpt>
      <trkpt lat="48.3148" lon="2.72296">
        <ele>64.01</ele>
        <time>2014-06-03T07:35:11Z</time>
      </trkpt>
      <trkpt lat="48.31484" lon="2.72323">
        <ele>63.13</ele>
        <time>2014-06-03T07:35:27Z</time>
      </trkpt>
      <trkpt lat="48.3149" lon="2.72351">
        <ele>68.31</ele>
        <time>2014-06-03T07:35:50Z</time>
      </trkpt>
      <trkpt lat="48.31498" lon="2.72377">
        <ele>70.19</ele>
        <time>2014-06-03T07:36:05Z</time>
      </trkpt>
      <trkpt lat="48.31506" lon="2.72402">
        <ele>70.73</ele>
        <time>2014-06-03T07:36:20Z</time>
      </trkpt>
      <trkpt lat="48.31513" lon="2.72428">
        <ele>68.4</ele>
        <time>2014-06-03T07:36:36Z</time>
      </trkpt>
      <trkpt lat="48.3152" lon="2.72454">
        <ele>66.21</ele>
        <time>2014-06-03T07:36:52Z</time>
      </trkpt>
      <trkpt lat="48.31524" lon="2.72482">
        <ele>66.82</ele>
        <time>2014-06-03T07:37:08Z</time>
      </trkpt>
      <trkpt lat="48.31527" lon="2.72509">
        <ele>71.3</ele>
        <time>2014-06-03T07:37:23Z</time>
      </trkpt>
      <trkpt lat="48.3153" lon="2.72537">
        <ele>69.39</ele>
        <time>2014-06-03T07:37:39Z</time>
      </trkpt>
      <trkpt lat="48.31534" lon="2.72565">
        <ele>70.06</ele>
        <time>2014-06-03T07:37:54Z</time>
      </trkpt>
      <trkpt lat="48.31539" lon="2.72592">
        <ele>69.72</ele>
        <time>2014-06-03T07:38:10Z</time>
      </trkpt>
      <trkpt lat="48.31548" lon="2.72617">
        <ele>67.32</ele>
        <time>2014-06-03T07:38:26Z</time>
      </trkpt>
      <trkpt lat="48.31556" lon="2.72643">
        <ele>64.84</ele>
        <time>2014-06-03T07:38:39Z</time>
      </trkpt>
      <trkpt lat="48.31564" lon="2.72669">
        <ele>65.14</ele>
        <time>2014-06-03T07:38:53Z</time>
      </trkpt>
      <trkpt lat="48.3157" lon="2.72695">
        <ele>63.83</ele>
        <time>2014-06-03T07:39:19Z</time>
      </trkpt>
      <trkpt lat="48.31583" lon="2.72716">
        <ele>65.53</ele>
        <time>2014-06-03T07:39:33Z</time>
      </trkpt>
      <trkpt lat="48.31586" lon="2.72744">
        <ele>66.5</ele>
        <time>2014-06-03T07:41:40Z</time>
      </trkpt>
      <trkpt lat="48.31593" lon="2.72769">
        <ele>66.56</ele>
        <time>2014-06-03T07:41:56Z</time>
      </trkpt>
      <trkpt lat="48.31599" lon="2.72795">
        <ele>64.34</ele>
        <time>2014-06-03T07:42:11Z</time>
      </trkpt>
      <trkpt lat="48.31605" lon="2.72821">
        <ele>67.33</ele>
        <time>2014-06-03T07:42:30Z</time>
      </trkpt>
      <trkpt lat="48.31612" lon="2.72846">
        <ele>66.65</ele>
        <time>2014-06-03T07:42:44Z</time>
      </trkpt>
      <trkpt lat="48.31619" lon="2.72871">
        <ele>68.32</ele>
        <time>2014-06-03T07:42:58Z</time>
      </trkpt>
      <trkpt lat="48.31623" lon="2.72898">
        <ele>66.39</ele>
        <time>2014-06-03T07:43:13Z</time>
      </trkpt>
      <trkpt lat="48.31627" lon="2.72925">
        <ele>59.76</ele>
        <time>2014-06-03T07:43:29Z</time>
      </trkpt>
      <trkpt lat="48.31631" lon="2.72952">
        <ele>60.74</ele>
        <time>2014-06-03T07:43:42Z</time>
      </trkpt>
      <trkpt lat="48.31634" lon="2.72981">
        <ele>61.33</ele>
        <time>2014-06-03T07:43:57Z</time>
      </trkpt>
      <trkpt lat="48.31638" lon="2.73009">
        <ele>60.31</ele>
        <time>2014-06-03T07:44:13Z</time>
      </trkpt>
      <trkpt lat="48.31641" lon="2.73037">
        <ele>61.61</ele>
        <time>2014-06-03T07:44:29Z</time>
      </trkpt>
      <trkpt lat="48.31646" lon="2.73064">
        <ele>61.02</ele>
        <time>2014-06-03T07:44:46Z</time>
      </trkpt>
      <trkpt lat="48.31649" lon="2.73091">
        <ele>59.91</ele>
        <time>2014-06-03T07:44:58Z</time>
      </trkpt>
      <trkpt lat="48.31653" lon="2.73119">
        <ele>58.37</ele>
        <time>2014-06-03T07:45:15Z</time>
      </trkpt>
      <trkpt lat="48.31657" lon="2.73146">
        <ele>65.17</ele>
        <time>2014-06-03T07:45:28Z</time>
      </trkpt>
      <trkpt lat="48.3166" lon="2.73173">
        <ele>64.74</ele>
        <time>2014-06-03T07:45:42Z</time>
      </trkpt>
      <trkpt lat="48.31664" lon="2.73199">
        <ele>60.71</ele>
        <time>2014-06-03T07:45:57Z</time>
      </trkpt>
      <trkpt lat="48.31666" lon="2.73226">
        <ele>63.26</ele>
        <time>2014-06-03T07:46:12Z</time>
      </trkpt>
      <trkpt lat="48.3167" lon="2.73254">
        <ele>63.3</ele>
        <time>2014-06-03T07:46:28Z</time>
      </trkpt>
      <trkpt lat="48.31671" lon="2.73282">
        <ele>65.23</ele>
        <time>2014-06-03T07:46:44Z</time>
      </trkpt>
      <trkpt lat="48.31677" lon="2.73308">
        <ele>66.33</ele>
        <time>2014-06-03T07:46:58Z</time>
      </trkpt>
      <trkpt lat="48.3168" lon="2.73335">
        <ele>65.33</ele>
        <time>2014-06-03T07:47:11Z</time>
      </trkpt>
      <trkpt lat="48.31684" lon="2.73362">
        <ele>64.34</ele>
        <time>2014-06-03T07:47:25Z</time>
      </trkpt>
      <trkpt lat="48.31688" lon="2.7339">
        <ele>62.4</ele>
        <time>2014-06-03T07:47:39Z</time>
      </trkpt>
      <trkpt lat="48.31693" lon="2.73418">
        <ele>60.64</ele>
        <time>2014-06-03T07:47:53Z</time>
      </trkpt>
      <trkpt lat="48.317" lon="2.73445">
        <ele>55.52</ele>
        <time>2014-06-03T07:48:10Z</time>
      </trkpt>
      <trkpt lat="48.31705" lon="2.73471">
        <ele>57.06</ele>
        <time>2014-06-03T07:48:24Z</time>
      </trkpt>
      <trkpt lat="48.3171" lon="2.73498">
        <ele>57.4</ele>
        <time>2014-06-03T07:48:39Z</time>
      </trkpt>
      <trkpt lat="48.31717" lon="2.73524">
        <ele>62.77</ele>
        <time>2014-06-03T07:48:53Z</time>
      </trkpt>
      <trkpt lat="48.31722" lon="2.7355">
        <ele>60.59</ele>
        <time>2014-06-03T07:49:07Z</time>
      </trkpt>
      <trkpt lat="48.31729" lon="2.73576">
        <ele>59.38</ele>
        <time>2014-06-03T07:49:23Z</time>
      </trkpt>
      <trkpt lat="48.31735" lon="2.73601">
        <ele>58.06</ele>
        <time>2014-06-03T07:49:37Z</time>
      </trkpt>
      <trkpt lat="48.31741" lon="2.73627">
        <ele>58.67</ele>
        <time>2014-06-03T07:49:52Z</time>
      </trkpt>
      <trkpt lat="48.31746" lon="2.73654">
        <ele>60.59</ele>
        <time>2014-06-03T07:50:07Z</time>
      </trkpt>
      <trkpt lat="48.31753" lon="2.73681">
        <ele>59.56</ele>
        <time>2014-06-03T07:50:21Z</time>
      </trkpt>
      <trkpt lat="48.31758" lon="2.73708">
        <ele>57.82</ele>
        <time>2014-06-03T07:50:37Z</time>
      </trkpt>
      <trkpt lat="48.31766" lon="2.73732">
        <ele>57.22</ele>
        <time>2014-06-03T07:50:51Z</time>
      </trkpt>
      <trkpt lat="48.31772" lon="2.73758">
        <ele>58.77</ele>
        <time>2014-06-03T07:51:08Z</time>
      </trkpt>
      <trkpt lat="48.31778" lon="2.73784">
        <ele>56.44</ele>
        <time>2014-06-03T07:51:21Z</time>
      </trkpt>
      <trkpt lat="48.31785" lon="2.7381">
        <ele>55.58</ele>
        <time>2014-06-03T07:51:34Z</time>
      </trkpt>
      <trkpt lat="48.3179" lon="2.73837">
        <ele>57.37</ele>
        <time>2014-06-03T07:51:48Z</time>
      </trkpt>
      <trkpt lat="48.31795" lon="2.73863">
        <ele>59.39</ele>
        <time>2014-06-03T07:52:03Z</time>
      </trkpt>
      <trkpt lat="48.31802" lon="2.7389">
        <ele>61.51</ele>
        <time>2014-06-03T07:52:20Z</time>
      </trkpt>
      <trkpt lat="48.31808" lon="2.73917">
        <ele>61.34</ele>
        <time>2014-06-03T07:52:35Z</time>
      </trkpt>
      <trkpt lat="48.31813" lon="2.73943">
        <ele>63.34</ele>
        <time>2014-06-03T07:52:49Z</time>
      </trkpt>
      <trkpt lat="48.31821" lon="2.73968">
        <ele>63.22</ele>
        <time>2014-06-03T07:53:03Z</time>
      </trkpt>
      <trkpt lat="48.31831" lon="2.73991">
        <ele>63.37</ele>
        <time>2014-06-03T07:53:17Z</time>
      </trkpt>
      <trkpt lat="48.31844" lon="2.7401">
        <ele>62.4</ele>
        <time>2014-06-03T07:53:31Z</time>
      </trkpt>
      <trkpt lat="48.31858" lon="2.74028">
        <ele>62.4</ele>
        <time>2014-06-03T07:53:47Z</time>
      </trkpt>
      <trkpt lat="48.31872" lon="2.74049">
        <ele>65.34</ele>
        <time>2014-06-03T07:54:02Z</time>
      </trkpt>
      <trkpt lat="48.31886" lon="2.74067">
        <ele>66.09</ele>
        <time>2014-06-03T07:54:17Z</time>
      </trkpt>
      <trkpt lat="48.319" lon="2.74085">
        <ele>64.67</ele>
        <time>2014-06-03T07:54:31Z</time>
      </trkpt>
      <trkpt lat="48.31913" lon="2.74103">
        <ele>61.38</ele>
        <time>2014-06-03T07:54:46Z</time>
      </trkpt>
      <trkpt lat="48.31926" lon="2.74123">
        <ele>62.35</ele>
        <time>2014-06-03T07:55:01Z</time>
      </trkpt>
      <trkpt lat="48.31939" lon="2.74143">
        <ele>67.26</ele>
        <time>2014-06-03T07:55:16Z</time>
      </trkpt>
      <trkpt lat="48.31953" lon="2.74163">
        <ele>66.73</ele>
        <time>2014-06-03T07:55:32Z</time>
      </trkpt>
      <trkpt lat="48.31967" lon="2.74181">
        <ele>63.24</ele>
        <time>2014-06-03T07:55:47Z</time>
      </trkpt>
      <trkpt lat="48.31982" lon="2.74196">
        <ele>60.79</ele>
        <time>2014-06-03T07:56:01Z</time>
      </trkpt>
      <trkpt lat="48.31996" lon="2.74215">
        <ele>63.79</ele>
        <time>2014-06-03T07:56:17Z</time>
      </trkpt>
      <trkpt lat="48.3201" lon="2.74234">
        <ele>63.47</ele>
        <time>2014-06-03T07:56:30Z</time>
      </trkpt>
      <trkpt lat="48.32024" lon="2.74251">
        <ele>60.57</ele>
        <time>2014-06-03T07:56:45Z</time>
      </trkpt>
      <trkpt lat="48.32038" lon="2.74268">
        <ele>60.83</ele>
        <time>2014-06-03T07:57:00Z</time>
      </trkpt>
      <trkpt lat="48.32052" lon="2.74286">
        <ele>60.8</ele>
        <time>2014-06-03T07:57:14Z</time>
      </trkpt>
      <trkpt lat="48.32066" lon="2.74305">
        <ele>61.37</ele>
        <time>2014-06-03T07:57:29Z</time>
      </trkpt>
      <trkpt lat="48.32079" lon="2.74325">
        <ele>61.34</ele>
        <time>2014-06-03T07:57:44Z</time>
      </trkpt>
      <trkpt lat="48.32092" lon="2.74346">
        <ele>61.84</ele>
        <time>2014-06-03T07:57:59Z</time>
      </trkpt>
      <trkpt lat="48.32105" lon="2.74365">
        <ele>63.57</ele>
        <time>2014-06-03T07:58:13Z</time>
      </trkpt>
      <trkpt lat="48.3212" lon="2.74383">
        <ele>62.34</ele>
        <time>2014-06-03T07:58:29Z</time>
      </trkpt>
      <trkpt lat="48.32134" lon="2.744">
        <ele>62.31</ele>
        <time>2014-06-03T07:58:44Z</time>
      </trkpt>
      <trkpt lat="48.32147" lon="2.74421">
        <ele>63.15</ele>
        <time>2014-06-03T07:58:59Z</time>
      </trkpt>
      <trkpt lat="48.3216" lon="2.74442">
        <ele>62.84</ele>
        <time>2014-06-03T07:59:14Z</time>
      </trkpt>
      <trkpt lat="48.32174" lon="2.74461">
        <ele>62.73</ele>
        <time>2014-06-03T07:59:29Z</time>
      </trkpt>
      <trkpt lat="48.32188" lon="2.74479">
        <ele>62.34</ele>
        <time>2014-06-03T07:59:44Z</time>
      </trkpt>
      <trkpt lat="48.32201" lon="2.74497">
        <ele>64.13</ele>
        <time>2014-06-03T07:59:58Z</time>
      </trkpt>
      <trkpt lat="48.32214" lon="2.74516">
        <ele>61.6</ele>
        <time>2014-06-03T08:00:13Z</time>
      </trkpt>
      <trkpt lat="48.32225" lon="2.74539">
        <ele>62.2</ele>
        <time>2014-06-03T08:00:28Z</time>
      </trkpt>
      <trkpt lat="48.32236" lon="2.74561">
        <ele>62.43</ele>
        <time>2014-06-03T08:00:43Z</time>
      </trkpt>
      <trkpt lat="48.32247" lon="2.74583">
        <ele>62.29</ele>
        <time>2014-06-03T08:00:59Z</time>
      </trkpt>
      <trkpt lat="48.32257" lon="2.74606">
        <ele>60.97</ele>
        <time>2014-06-03T08:01:16Z</time>
      </trkpt>
      <trkpt lat="48.32266" lon="2.7463">
        <ele>60.3</ele>
        <time>2014-06-03T08:01:30Z</time>
      </trkpt>
      <trkpt lat="48.32278" lon="2.74651">
        <ele>61.09</ele>
        <time>2014-06-03T08:01:47Z</time>
      </trkpt>
      <trkpt lat="48.32284" lon="2.74677">
        <ele>60.95</ele>
        <time>2014-06-03T08:02:06Z</time>
      </trkpt>
      <trkpt lat="48.32279" lon="2.74702">
        <ele>62.58</ele>
        <time>2014-06-03T08:04:48Z</time>
      </trkpt>
      <trkpt lat="48.32297" lon="2.74697">
        <ele>63.25</ele>
        <time>2014-06-03T08:05:52Z</time>
      </trkpt>
      <trkpt lat="48.32312" lon="2.74682">
        <ele>63.76</ele>
        <time>2014-06-03T08:06:04Z</time>
      </trkpt>
      <trkpt lat="48.32327" lon="2.74666">
        <ele>61.91</ele>
        <time>2014-06-03T08:06:15Z</time>
      </trkpt>
      <trkpt lat="48.32343" lon="2.74651">
        <ele>60.42</ele>
        <time>2014-06-03T08:06:39Z</time>
      </trkpt>
      <trkpt lat="48.3236" lon="2.74639">
        <ele>58.09</ele>
        <time>2014-06-03T08:06:54Z</time>
      </trkpt>
      <trkpt lat="48.32376" lon="2.74627">
        <ele>57.35</ele>
        <time>2014-06-03T08:07:09Z</time>
      </trkpt>
      <trkpt lat="48.32395" lon="2.74622">
        <ele>56.53</ele>
        <time>2014-06-03T08:07:23Z</time>
      </trkpt>
      <trkpt lat="48.32413" lon="2.74622">
        <ele>58.59</ele>
        <time>2014-06-03T08:07:39Z</time>
      </trkpt>
      <trkpt lat="48.32432" lon="2.74625">
        <ele>61.52</ele>
        <time>2014-06-03T08:07:57Z</time>
      </trkpt>
      <trkpt lat="48.3245" lon="2.74633">
        <ele>62.82</ele>
        <time>2014-06-03T08:08:10Z</time>
      </trkpt>
      <trkpt lat="48.32468" lon="2.74632">
        <ele>62.59</ele>
        <time>2014-06-03T08:08:26Z</time>
      </trkpt>
      <trkpt lat="48.32487" lon="2.74635">
        <ele>67.63</ele>
        <time>2014-06-03T08:08:39Z</time>
      </trkpt>
      <trkpt lat="48.32504" lon="2.74643">
        <ele>64.47</ele>
        <time>2014-06-03T08:08:55Z</time>
      </trkpt>
      <trkpt lat="48.32523" lon="2.74646">
        <ele>70.64</ele>
        <time>2014-06-03T08:09:10Z</time>
      </trkpt>
      <trkpt lat="48.3254" lon="2.74658">
        <ele>71.28</ele>
        <time>2014-06-03T08:09:24Z</time>
      </trkpt>
      <trkpt lat="48.32558" lon="2.74669">
        <ele>68.67</ele>
        <time>2014-06-03T08:09:38Z</time>
      </trkpt>
      <trkpt lat="48.32575" lon="2.74678">
        <ele>65.35</ele>
        <time>2014-06-03T08:09:55Z</time>
      </trkpt>
      <trkpt lat="48.32593" lon="2.74684">
        <ele>67.17</ele>
        <time>2014-06-03T08:10:09Z</time>
      </trkpt>
      <trkpt lat="48.32612" lon="2.74689">
        <ele>65.35</ele>
        <time>2014-06-03T08:10:24Z</time>
      </trkpt>
      <trkpt lat="48.3263" lon="2.74691">
        <ele>66.22</ele>
        <time>2014-06-03T08:10:39Z</time>
      </trkpt>
      <trkpt lat="48.32649" lon="2.74698">
        <ele>66.34</ele>
        <time>2014-06-03T08:10:56Z</time>
      </trkpt>
      <trkpt lat="48.32667" lon="2.74704">
        <ele>61.96</ele>
        <time>2014-06-03T08:11:11Z</time>
      </trkpt>
      <trkpt lat="48.32685" lon="2.74712">
        <ele>59.82</ele>
        <time>2014-06-03T08:11:27Z</time>
      </trkpt>
      <trkpt lat="48.32702" lon="2.74719">
        <ele>59.06</ele>
        <time>2014-06-03T08:11:41Z</time>
      </trkpt>
      <trkpt lat="48.3272" lon="2.74727">
        <ele>60.36</ele>
        <time>2014-06-03T08:11:55Z</time>
      </trkpt>
      <trkpt lat="48.32737" lon="2.74734">
        <ele>60.44</ele>
        <time>2014-06-03T08:12:09Z</time>
      </trkpt>
      <trkpt lat="48.32755" lon="2.74739">
        <ele>62.52</ele>
        <time>2014-06-03T08:12:31Z</time>
      </trkpt>
      <trkpt lat="48.32774" lon="2.74748">
        <ele>65.26</ele>
        <time>2014-06-03T08:12:45Z</time>
      </trkpt>
      <trkpt lat="48.32792" lon="2.74755">
        <ele>65.21</ele>
        <time>2014-06-03T08:13:00Z</time>
      </trkpt>
      <trkpt lat="48.32809" lon="2.74763">
        <ele>66.34</ele>
        <time>2014-06-03T08:13:15Z</time>
      </trkpt>
      <trkpt lat="48.32828" lon="2.7477">
        <ele>64.42</ele>
        <time>2014-06-03T08:13:31Z</time>
      </trkpt>
      <trkpt lat="48.32846" lon="2.74777">
        <ele>64.62</ele>
        <time>2014-06-03T08:13:47Z</time>
      </trkpt>
      <trkpt lat="48.32864" lon="2.74783">
        <ele>63.61</ele>
        <time>2014-06-03T08:14:05Z</time>
      </trkpt>
      <trkpt lat="48.32882" lon="2.74783">
        <ele>63.18</ele>
        <time>2014-06-03T08:14:21Z</time>
      </trkpt>
      <trkpt lat="48.32901" lon="2.74789">
        <ele>58.67</ele>
        <time>2014-06-03T08:14:38Z</time>
      </trkpt>
      <trkpt lat="48.32919" lon="2.74796">
        <ele>60.97</ele>
        <time>2014-06-03T08:14:53Z</time>
      </trkpt>
      <trkpt lat="48.32936" lon="2.74805">
        <ele>59.35</ele>
        <time>2014-06-03T08:15:15Z</time>
      </trkpt>
      <trkpt lat="48.32954" lon="2.74814">
        <ele>64.13</ele>
        <time>2014-06-03T08:15:29Z</time>
      </trkpt>
      <trkpt lat="48.32971" lon="2.74823">
        <ele>62.47</ele>
        <time>2014-06-03T08:15:43Z</time>
      </trkpt>
      <trkpt lat="48.32988" lon="2.74833">
        <ele>62.28</ele>
        <time>2014-06-03T08:15:59Z</time>
      </trkpt>
      <trkpt lat="48.33007" lon="2.74839">
        <ele>64.34</ele>
        <time>2014-06-03T08:16:14Z</time>
      </trkpt>
      <trkpt lat="48.33025" lon="2.74847">
        <ele>67.77</ele>
        <time>2014-06-03T08:16:30Z</time>
      </trkpt>
      <trkpt lat="48.33044" lon="2.74851">
        <ele>67.53</ele>
        <time>2014-06-03T08:16:47Z</time>
      </trkpt>
      <trkpt lat="48.33062" lon="2.74856">
        <ele>65.76</ele>
        <time>2014-06-03T08:17:04Z</time>
      </trkpt>
      <trkpt lat="48.3308" lon="2.74865">
        <ele>60.42</ele>
        <time>2014-06-03T08:18:28Z</time>
      </trkpt>
      <trkpt lat="48.33098" lon="2.74871">
        <ele>60.29</ele>
        <time>2014-06-03T08:18:44Z</time>
      </trkpt>
      <trkpt lat="48.33117" lon="2.74878">
        <ele>57.42</ele>
        <time>2014-06-03T08:19:01Z</time>
      </trkpt>
      <trkpt lat="48.33135" lon="2.74887">
        <ele>53.43</ele>
        <time>2014-06-03T08:19:18Z</time>
      </trkpt>
      <trkpt lat="48.33153" lon="2.74894">
        <ele>48.78</ele>
        <time>2014-06-03T08:19:35Z</time>
      </trkpt>
      <trkpt lat="48.3317" lon="2.749">
        <ele>52.25</ele>
        <time>2014-06-03T08:19:50Z</time>
      </trkpt>
      <trkpt lat="48.33188" lon="2.74907">
        <ele>53.17</ele>
        <time>2014-06-03T08:20:06Z</time>
      </trkpt>
      <trkpt lat="48.33206" lon="2.74914">
        <ele>51.72</ele>
        <time>2014-06-03T08:20:22Z</time>
      </trkpt>
      <trkpt lat="48.33224" lon="2.74919">
        <ele>53.21</ele>
        <time>2014-06-03T08:20:38Z</time>
      </trkpt>
      <trkpt lat="48.33242" lon="2.74923">
        <ele>54.48</ele>
        <time>2014-06-03T08:20:53Z</time>
      </trkpt>
      <trkpt lat="48.33259" lon="2.74933">
        <ele>56.89</ele>
        <time>2014-06-03T08:21:07Z</time>
      </trkpt>
      <trkpt lat="48.33276" lon="2.74942">
        <ele>55.35</ele>
        <time>2014-06-03T08:21:23Z</time>
      </trkpt>
      <trkpt lat="48.33296" lon="2.74944">
        <ele>56.99</ele>
        <time>2014-06-03T08:21:42Z</time>
      </trkpt>
      <trkpt lat="48.33313" lon="2.74953">
        <ele>55.5</ele>
        <time>2014-06-03T08:21:54Z</time>
      </trkpt>
      <trkpt lat="48.33331" lon="2.7496">
        <ele>58.77</ele>
        <time>2014-06-03T08:22:09Z</time>
      </trkpt>
      <trkpt lat="48.3335" lon="2.74966">
        <ele>56.89</ele>
        <time>2014-06-03T08:22:26Z</time>
      </trkpt>
      <trkpt lat="48.33368" lon="2.74974">
        <ele>53.58</ele>
        <time>2014-06-03T08:22:41Z</time>
      </trkpt>
      <trkpt lat="48.33386" lon="2.74974">
        <ele>48.97</ele>
        <time>2014-06-03T08:22:57Z</time>
      </trkpt>
      <trkpt lat="48.33403" lon="2.74986">
        <ele>57.42</ele>
        <time>2014-06-03T08:23:16Z</time>
      </trkpt>
      <trkpt lat="48.33422" lon="2.74994">
        <ele>58.25</ele>
        <time>2014-06-03T08:23:32Z</time>
      </trkpt>
      <trkpt lat="48.33439" lon="2.74984">
        <ele>60.12</ele>
        <time>2014-06-03T08:23:49Z</time>
      </trkpt>
      <trkpt lat="48.33457" lon="2.74978">
        <ele>63.27</ele>
        <time>2014-06-03T08:24:09Z</time>
      </trkpt>
      <trkpt lat="48.33474" lon="2.74969">
        <ele>64.22</ele>
        <time>2014-06-03T08:24:45Z</time>
      </trkpt>
      <trkpt lat="48.33491" lon="2.74956">
        <ele>63.46</ele>
        <time>2014-06-03T08:24:58Z</time>
      </trkpt>
      <trkpt lat="48.33494" lon="2.74929">
        <ele>61.1</ele>
        <time>2014-06-03T08:25:23Z</time>
      </trkpt>
      <trkpt lat="48.3349" lon="2.74902">
        <ele>57.59</ele>
        <time>2014-06-03T08:25:42Z</time>
      </trkpt>
      <trkpt lat="48.33488" lon="2.74874">
        <ele>59.09</ele>
        <time>2014-06-03T08:25:55Z</time>
      </trkpt>
      <trkpt lat="48.33486" lon="2.74847">
        <ele>62.39</ele>
        <time>2014-06-03T08:26:13Z</time>
      </trkpt>
      <trkpt lat="48.3349" lon="2.7482">
        <ele>57.37</ele>
        <time>2014-06-03T08:26:30Z</time>
      </trkpt>
      <trkpt lat="48.33487" lon="2.74793">
        <ele>58.19</ele>
        <time>2014-06-03T08:26:48Z</time>
      </trkpt>
      <trkpt lat="48.33481" lon="2.74767">
        <ele>57.4</ele>
        <time>2014-06-03T08:27:04Z</time>
      </trkpt>
      <trkpt lat="48.33475" lon="2.74741">
        <ele>53.96</ele>
        <time>2014-06-03T08:27:20Z</time>
      </trkpt>
      <trkpt lat="48.33466" lon="2.74718">
        <ele>56.47</ele>
        <time>2014-06-03T08:27:52Z</time>
      </trkpt>
      <trkpt lat="48.33451" lon="2.74701">
        <ele>54.63</ele>
        <time>2014-06-03T08:28:03Z</time>
      </trkpt>
      <trkpt lat="48.33439" lon="2.7468">
        <ele>55.2</ele>
        <time>2014-06-03T08:28:16Z</time>
      </trkpt>
      <trkpt lat="48.33429" lon="2.74656">
        <ele>60.03</ele>
        <time>2014-06-03T08:28:30Z</time>
      </trkpt>
      <trkpt lat="48.3342" lon="2.74631">
        <ele>57.39</ele>
        <time>2014-06-03T08:28:45Z</time>
      </trkpt>
      <trkpt lat="48.33413" lon="2.74605">
        <ele>59.74</ele>
        <time>2014-06-03T08:29:01Z</time>
      </trkpt>
      <trkpt lat="48.33404" lon="2.74581">
        <ele>57.4</ele>
        <time>2014-06-03T08:29:17Z</time>
      </trkpt>
      <trkpt lat="48.33386" lon="2.74575">
        <ele>57.59</ele>
        <time>2014-06-03T08:30:24Z</time>
      </trkpt>
      <trkpt lat="48.33401" lon="2.74591">
        <ele>52.48</ele>
        <time>2014-06-03T08:34:22Z</time>
      </trkpt>
      <trkpt lat="48.33413" lon="2.74613">
        <ele>57.72</ele>
        <time>2014-06-03T08:34:33Z</time>
      </trkpt>
      <trkpt lat="48.33422" lon="2.74639">
        <ele>53.62</ele>
        <time>2014-06-03T08:34:46Z</time>
      </trkpt>
      <trkpt lat="48.33432" lon="2.74662">
        <ele>54.72</ele>
        <time>2014-06-03T08:34:57Z</time>
      </trkpt>
      <trkpt lat="48.33437" lon="2.7469">
        <ele>48.18</ele>
        <time>2014-06-03T08:35:35Z</time>
      </trkpt>
      <trkpt lat="48.33447" lon="2.74714">
        <ele>47.71</ele>
        <time>2014-06-03T08:35:45Z</time>
      </trkpt>
      <trkpt lat="48.33427" lon="2.74708">
        <ele>45.66</ele>
        <time>2014-06-03T08:36:31Z</time>
      </trkpt>
      <trkpt lat="48.33422" lon="2.74682">
        <ele>44.33</ele>
        <time>2014-06-03T08:36:42Z</time>
      </trkpt>
      <trkpt lat="48.33424" lon="2.74655">
        <ele>51.89</ele>
        <time>2014-06-03T08:37:07Z</time>
      </trkpt>
      <trkpt lat="48.33417" lon="2.74629">
        <ele>53.58</ele>
        <time>2014-06-03T08:37:17Z</time>
      </trkpt>
      <trkpt lat="48.33414" lon="2.74601">
        <ele>58.28</ele>
        <time>2014-06-03T08:37:28Z</time>
      </trkpt>
      <trkpt lat="48.33401" lon="2.74579">
        <ele>59.52</ele>
        <time>2014-06-03T08:37:44Z</time>
      </trkpt>
      <trkpt lat="48.33383" lon="2.74577">
        <ele>48.32</ele>
        <time>2014-06-03T08:38:43Z</time>
      </trkpt>
      <trkpt lat="48.33402" lon="2.74583">
        <ele>51.05</ele>
        <time>2014-06-03T08:45:46Z</time>
      </trkpt>
      <trkpt lat="48.33415" lon="2.74603">
        <ele>58.1</ele>
        <time>2014-06-03T08:46:03Z</time>
      </trkpt>
      <trkpt lat="48.3343" lon="2.74617">
        <ele>62.93</ele>
        <time>2014-06-03T08:46:21Z</time>
      </trkpt>
      <trkpt lat="48.33447" lon="2.74605">
        <ele>57.14</ele>
        <time>2014-06-03T08:46:37Z</time>
      </trkpt>
      <trkpt lat="48.33456" lon="2.74628">
        <ele>62.66</ele>
        <time>2014-06-03T08:47:52Z</time>
      </trkpt>
      <trkpt lat="48.33468" lon="2.7465">
        <ele>58.76</ele>
        <time>2014-06-03T08:48:07Z</time>
      </trkpt>
      <trkpt lat="48.3348" lon="2.74671">
        <ele>55.84</ele>
        <time>2014-06-03T08:48:51Z</time>
      </trkpt>
      <trkpt lat="48.33488" lon="2.74647">
        <ele>62.29</ele>
        <time>2014-06-03T08:49:16Z</time>
      </trkpt>
      <trkpt lat="48.33497" lon="2.74622">
        <ele>65.31</ele>
        <time>2014-06-03T08:49:32Z</time>
      </trkpt>
      <trkpt lat="48.33502" lon="2.74596">
        <ele>63.21</ele>
        <time>2014-06-03T08:49:49Z</time>
      </trkpt>
      <trkpt lat="48.33506" lon="2.74569">
        <ele>65.84</ele>
        <time>2014-06-03T08:50:06Z</time>
      </trkpt>
      <trkpt lat="48.33513" lon="2.74544">
        <ele>65.45</ele>
        <time>2014-06-03T08:50:23Z</time>
      </trkpt>
      <trkpt lat="48.33521" lon="2.74518">
        <ele>70.34</ele>
        <time>2014-06-03T08:50:40Z</time>
      </trkpt>
      <trkpt lat="48.33536" lon="2.74503">
        <ele>68.91</ele>
        <time>2014-06-03T08:50:56Z</time>
      </trkpt>
      <trkpt lat="48.33552" lon="2.74492">
        <ele>65.28</ele>
        <time>2014-06-03T08:51:16Z</time>
      </trkpt>
      <trkpt lat="48.3357" lon="2.74479">
        <ele>64.72</ele>
        <time>2014-06-03T08:51:33Z</time>
      </trkpt>
      <trkpt lat="48.33587" lon="2.74469">
        <ele>65.97</ele>
        <time>2014-06-03T08:51:51Z</time>
      </trkpt>
      <trkpt lat="48.33605" lon="2.74458">
        <ele>68.57</ele>
        <time>2014-06-03T08:52:06Z</time>
      </trkpt>
      <trkpt lat="48.33622" lon="2.74447">
        <ele>66.92</ele>
        <time>2014-06-03T08:52:22Z</time>
      </trkpt>
      <trkpt lat="48.3364" lon="2.7444">
        <ele>65.14</ele>
        <time>2014-06-03T08:52:45Z</time>
      </trkpt>
      <trkpt lat="48.33658" lon="2.74438">
        <ele>63.09</ele>
        <time>2014-06-03T08:53:28Z</time>
      </trkpt>
      <trkpt lat="48.33676" lon="2.74445">
        <ele>67.29</ele>
        <time>2014-06-03T08:53:45Z</time>
      </trkpt>
      <trkpt lat="48.33694" lon="2.74453">
        <ele>63.82</ele>
        <time>2014-06-03T08:53:59Z</time>
      </trkpt>
      <trkpt lat="48.33712" lon="2.74459">
        <ele>66.73</ele>
        <time>2014-06-03T08:54:15Z</time>
      </trkpt>
      <trkpt lat="48.3373" lon="2.74462">
        <ele>68.91</ele>
        <time>2014-06-03T08:54:30Z</time>
      </trkpt>
      <trkpt lat="48.33749" lon="2.74469">
        <ele>70.09</ele>
        <time>2014-06-03T08:54:46Z</time>
      </trkpt>
      <trkpt lat="48.33768" lon="2.74472">
        <ele>67.55</ele>
        <time>2014-06-03T08:55:07Z</time>
      </trkpt>
      <trkpt lat="48.33785" lon="2.74478">
        <ele>75.13</ele>
        <time>2014-06-03T08:55:22Z</time>
      </trkpt>
      <trkpt lat="48.33804" lon="2.7448">
        <ele>72.27</ele>
        <time>2014-06-03T08:55:39Z</time>
      </trkpt>
      <trkpt lat="48.33823" lon="2.74481">
        <ele>73.08</ele>
        <time>2014-06-03T08:55:54Z</time>
      </trkpt>
      <trkpt lat="48.33842" lon="2.74478">
        <ele>73.06</ele>
        <time>2014-06-03T08:56:09Z</time>
      </trkpt>
      <trkpt lat="48.3386" lon="2.74475">
        <ele>69.17</ele>
        <time>2014-06-03T08:56:22Z</time>
      </trkpt>
      <trkpt lat="48.33877" lon="2.74462">
        <ele>71.96</ele>
        <time>2014-06-03T08:56:39Z</time>
      </trkpt>
      <trkpt lat="48.33876" lon="2.74435">
        <ele>71.92</ele>
        <time>2014-06-03T08:56:54Z</time>
      </trkpt>
      <trkpt lat="48.33876" lon="2.74407">
        <ele>73.34</ele>
        <time>2014-06-03T08:57:12Z</time>
      </trkpt>
      <trkpt lat="48.33873" lon="2.7438">
        <ele>74.79</ele>
        <time>2014-06-03T08:57:30Z</time>
      </trkpt>
      <trkpt lat="48.33874" lon="2.74353">
        <ele>77.4</ele>
        <time>2014-06-03T08:57:47Z</time>
      </trkpt>
      <trkpt lat="48.33865" lon="2.74328">
        <ele>81.44</ele>
        <time>2014-06-03T08:58:06Z</time>
      </trkpt>
      <trkpt lat="48.33847" lon="2.74325">
        <ele>76.18</ele>
        <time>2014-06-03T08:58:22Z</time>
      </trkpt>
      <trkpt lat="48.33838" lon="2.74301">
        <ele>81.33</ele>
        <time>2014-06-03T08:58:39Z</time>
      </trkpt>
      <trkpt lat="48.33836" lon="2.74274">
        <ele>85.17</ele>
        <time>2014-06-03T08:58:55Z</time>
      </trkpt>
      <trkpt lat="48.33835" lon="2.74246">
        <ele>86.28</ele>
        <time>2014-06-03T08:59:11Z</time>
      </trkpt>
      <trkpt lat="48.33834" lon="2.74218">
        <ele>86.34</ele>
        <time>2014-06-03T08:59:27Z</time>
      </trkpt>
      <trkpt lat="48.33821" lon="2.74198">
        <ele>79.34</ele>
        <time>2014-06-03T09:00:43Z</time>
      </trkpt>
      <trkpt lat="48.33803" lon="2.74197">
        <ele>78.87</ele>
        <time>2014-06-03T09:01:14Z</time>
      </trkpt>
      <trkpt lat="48.33784" lon="2.74198">
        <ele>77.82</ele>
        <time>2014-06-03T09:01:53Z</time>
      </trkpt>
      <trkpt lat="48.33766" lon="2.74195">
        <ele>80.68</ele>
        <time>2014-06-03T09:03:21Z</time>
      </trkpt>
      <trkpt lat="48.33748" lon="2.74196">
        <ele>74.54</ele>
        <time>2014-06-03T09:03:34Z</time>
      </trkpt>
      <trkpt lat="48.33729" lon="2.74198">
        <ele>73.47</ele>
        <time>2014-06-03T09:03:49Z</time>
      </trkpt>
      <trkpt lat="48.3371" lon="2.74197">
        <ele>78.41</ele>
        <time>2014-06-03T09:04:08Z</time>
      </trkpt>
      <trkpt lat="48.33692" lon="2.74201">
        <ele>73.83</ele>
        <time>2014-06-03T09:04:25Z</time>
      </trkpt>
      <trkpt lat="48.33691" lon="2.74173">
        <ele>79.21</ele>
        <time>2014-06-03T09:04:48Z</time>
      </trkpt>
      <trkpt lat="48.33692" lon="2.74144">
        <ele>78.9</ele>
        <time>2014-06-03T09:05:08Z</time>
      </trkpt>
      <trkpt lat="48.33696" lon="2.74117">
        <ele>77.65</ele>
        <time>2014-06-03T09:05:23Z</time>
      </trkpt>
      <trkpt lat="48.33696" lon="2.74088">
        <ele>81.36</ele>
        <time>2014-06-03T09:05:40Z</time>
      </trkpt>
      <trkpt lat="48.33697" lon="2.74061">
        <ele>81.54</ele>
        <time>2014-06-03T09:05:54Z</time>
      </trkpt>
      <trkpt lat="48.33698" lon="2.74033">
        <ele>81.08</ele>
        <time>2014-06-03T09:06:09Z</time>
      </trkpt>
      <trkpt lat="48.33699" lon="2.74005">
        <ele>81.13</ele>
        <time>2014-06-03T09:06:24Z</time>
      </trkpt>
      <trkpt lat="48.33702" lon="2.73976">
        <ele>77.42</ele>
        <time>2014-06-03T09:06:40Z</time>
      </trkpt>
      <trkpt lat="48.33705" lon="2.73949">
        <ele>78.08</ele>
        <time>2014-06-03T09:06:55Z</time>
      </trkpt>
      <trkpt lat="48.33707" lon="2.7392">
        <ele>81.79</ele>
        <time>2014-06-03T09:07:10Z</time>
      </trkpt>
      <trkpt lat="48.33711" lon="2.73892">
        <ele>80.23</ele>
        <time>2014-06-03T09:07:25Z</time>
      </trkpt>
      <trkpt lat="48.33709" lon="2.73864">
        <ele>77.34</ele>
        <time>2014-06-03T09:07:41Z</time>
      </trkpt>
      <trkpt lat="48.33708" lon="2.73835">
        <ele>80.3</ele>
        <time>2014-06-03T09:08:05Z</time>
      </trkpt>
      <trkpt lat="48.33709" lon="2.73807">
        <ele>80.37</ele>
        <time>2014-06-03T09:08:19Z</time>
      </trkpt>
      <trkpt lat="48.3371" lon="2.73779">
        <ele>82.06</ele>
        <time>2014-06-03T09:08:32Z</time>
      </trkpt>
      <trkpt lat="48.33709" lon="2.7375">
        <ele>81.27</ele>
        <time>2014-06-03T09:08:47Z</time>
      </trkpt>
      <trkpt lat="48.33709" lon="2.73722">
        <ele>80.3</ele>
        <time>2014-06-03T09:09:02Z</time>
      </trkpt>
      <trkpt lat="48.33708" lon="2.73695">
        <ele>81.29</ele>
        <time>2014-06-03T09:09:16Z</time>
      </trkpt>
      <trkpt lat="48.33709" lon="2.73667">
        <ele>83.57</ele>
        <time>2014-06-03T09:09:30Z</time>
      </trkpt>
      <trkpt lat="48.33709" lon="2.73639">
        <ele>83.16</ele>
        <time>2014-06-03T09:09:45Z</time>
      </trkpt>
      <trkpt lat="48.33708" lon="2.73612">
        <ele>84.77</ele>
        <time>2014-06-03T09:09:59Z</time>
      </trkpt>
      <trkpt lat="48.33702" lon="2.73586">
        <ele>88.3</ele>
        <time>2014-06-03T09:10:20Z</time>
      </trkpt>
      <trkpt lat="48.33683" lon="2.73588">
        <ele>85.56</ele>
        <time>2014-06-03T09:10:35Z</time>
      </trkpt>
      <trkpt lat="48.33664" lon="2.73592">
        <ele>84.89</ele>
        <time>2014-06-03T09:10:51Z</time>
      </trkpt>
      <trkpt lat="48.33645" lon="2.73587">
        <ele>80.63</ele>
        <time>2014-06-03T09:11:10Z</time>
      </trkpt>
      <trkpt lat="48.33627" lon="2.73586">
        <ele>80.61</ele>
        <time>2014-06-03T09:11:25Z</time>
      </trkpt>
      <trkpt lat="48.33611" lon="2.73571">
        <ele>85.27</ele>
        <time>2014-06-03T09:11:44Z</time>
      </trkpt>
      <trkpt lat="48.33609" lon="2.73598">
        <ele>83.21</ele>
        <time>2014-06-03T09:12:30Z</time>
      </trkpt>
      <trkpt lat="48.3359" lon="2.73604">
        <ele>81.66</ele>
        <time>2014-06-03T09:12:53Z</time>
      </trkpt>
      <trkpt lat="48.33572" lon="2.73608">
        <ele>81.32</ele>
        <time>2014-06-03T09:13:09Z</time>
      </trkpt>
      <trkpt lat="48.33553" lon="2.73611">
        <ele>80.3</ele>
        <time>2014-06-03T09:13:28Z</time>
      </trkpt>
      <trkpt lat="48.33535" lon="2.73621">
        <ele>84.8</ele>
        <time>2014-06-03T09:13:42Z</time>
      </trkpt>
      <trkpt lat="48.33517" lon="2.7363">
        <ele>83.31</ele>
        <time>2014-06-03T09:13:53Z</time>
      </trkpt>
      <trkpt lat="48.33498" lon="2.73632">
        <ele>82.99</ele>
        <time>2014-06-03T09:14:03Z</time>
      </trkpt>
      <trkpt lat="48.3348" lon="2.73639">
        <ele>76.96</ele>
        <time>2014-06-03T09:14:16Z</time>
      </trkpt>
      <trkpt lat="48.33462" lon="2.73645">
        <ele>80.39</ele>
        <time>2014-06-03T09:14:30Z</time>
      </trkpt>
      <trkpt lat="48.33443" lon="2.73645">
        <ele>84.72</ele>
        <time>2014-06-03T09:14:45Z</time>
      </trkpt>
      <trkpt lat="48.33426" lon="2.73637">
        <ele>86.84</ele>
        <time>2014-06-03T09:15:03Z</time>
      </trkpt>
      <trkpt lat="48.3342" lon="2.73611">
        <ele>87.45</ele>
        <time>2014-06-03T09:15:19Z</time>
      </trkpt>
      <trkpt lat="48.33413" lon="2.73585">
        <ele>88.34</ele>
        <time>2014-06-03T09:15:36Z</time>
      </trkpt>
      <trkpt lat="48.33405" lon="2.73559">
        <ele>88.84</ele>
        <time>2014-06-03T09:15:51Z</time>
      </trkpt>
      <trkpt lat="48.33398" lon="2.73534">
        <ele>87.61</ele>
        <time>2014-06-03T09:16:07Z</time>
      </trkpt>
      <trkpt lat="48.3338" lon="2.73526">
        <ele>85.41</ele>
        <time>2014-06-03T09:16:27Z</time>
      </trkpt>
      <trkpt lat="48.33362" lon="2.73535">
        <ele>91.34</ele>
        <time>2014-06-03T09:16:41Z</time>
      </trkpt>
      <trkpt lat="48.33345" lon="2.73545">
        <ele>90.57</ele>
        <time>2014-06-03T09:16:57Z</time>
      </trkpt>
      <trkpt lat="48.33328" lon="2.73555">
        <ele>90.82</ele>
        <time>2014-06-03T09:17:13Z</time>
      </trkpt>
      <trkpt lat="48.33311" lon="2.73567">
        <ele>92.01</ele>
        <time>2014-06-03T09:17:30Z</time>
      </trkpt>
      <trkpt lat="48.33296" lon="2.73582">
        <ele>86.07</ele>
        <time>2014-06-03T09:17:48Z</time>
      </trkpt>
      <trkpt lat="48.33279" lon="2.73594">
        <ele>87.55</ele>
        <time>2014-06-03T09:18:03Z</time>
      </trkpt>
      <trkpt lat="48.33261" lon="2.73602">
        <ele>83.4</ele>
        <time>2014-06-03T09:18:19Z</time>
      </trkpt>
      <trkpt lat="48.3325" lon="2.7358">
        <ele>77.93</ele>
        <time>2014-06-03T09:18:33Z</time>
      </trkpt>
      <trkpt lat="48.33244" lon="2.73554">
        <ele>78.24</ele>
        <time>2014-06-03T09:18:52Z</time>
      </trkpt>
      <trkpt lat="48.33236" lon="2.73529">
        <ele>76.86</ele>
        <time>2014-06-03T09:19:08Z</time>
      </trkpt>
      <trkpt lat="48.33226" lon="2.73506">
        <ele>78.87</ele>
        <time>2014-06-03T09:19:21Z</time>
      </trkpt>
      <trkpt lat="48.33219" lon="2.73481">
        <ele>80.33</ele>
        <time>2014-06-03T09:19:36Z</time>
      </trkpt>
      <trkpt lat="48.33208" lon="2.73457">
        <ele>82.26</ele>
        <time>2014-06-03T09:19:51Z</time>
      </trkpt>
      <trkpt lat="48.33203" lon="2.73431">
        <ele>83.92</ele>
        <time>2014-06-03T09:20:08Z</time>
      </trkpt>
      <trkpt lat="48.33196" lon="2.73405">
        <ele>84.34</ele>
        <time>2014-06-03T09:20:23Z</time>
      </trkpt>
      <trkpt lat="48.33193" lon="2.73378">
        <ele>84.34</ele>
        <time>2014-06-03T09:20:38Z</time>
      </trkpt>
      <trkpt lat="48.33175" lon="2.73382">
        <ele>82.65</ele>
        <time>2014-06-03T09:21:12Z</time>
      </trkpt>
      <trkpt lat="48.33157" lon="2.73391">
        <ele>87.96</ele>
        <time>2014-06-03T09:21:29Z</time>
      </trkpt>
      <trkpt lat="48.3314" lon="2.734">
        <ele>86.47</ele>
        <time>2014-06-03T09:21:46Z</time>
      </trkpt>
      <trkpt lat="48.33123" lon="2.73411">
        <ele>86.38</ele>
        <time>2014-06-03T09:22:01Z</time>
      </trkpt>
      <trkpt lat="48.33108" lon="2.73427">
        <ele>83</ele>
        <time>2014-06-03T09:22:17Z</time>
      </trkpt>
      <trkpt lat="48.3309" lon="2.73437">
        <ele>76.98</ele>
        <time>2014-06-03T09:22:38Z</time>
      </trkpt>
      <trkpt lat="48.33076" lon="2.73419">
        <ele>78.46</ele>
        <time>2014-06-03T09:25:05Z</time>
      </trkpt>
      <trkpt lat="48.3306" lon="2.73405">
        <ele>80.02</ele>
        <time>2014-06-03T09:25:18Z</time>
      </trkpt>
      <trkpt lat="48.33047" lon="2.73384">
        <ele>79.2</ele>
        <time>2014-06-03T09:25:31Z</time>
      </trkpt>
      <trkpt lat="48.33038" lon="2.7336">
        <ele>79.78</ele>
        <time>2014-06-03T09:25:44Z</time>
      </trkpt>
      <trkpt lat="48.33028" lon="2.73337">
        <ele>81.34</ele>
        <time>2014-06-03T09:25:58Z</time>
      </trkpt>
      <trkpt lat="48.33018" lon="2.73312">
        <ele>82.18</ele>
        <time>2014-06-03T09:26:13Z</time>
      </trkpt>
      <trkpt lat="48.33007" lon="2.7329">
        <ele>83.29</ele>
        <time>2014-06-03T09:26:27Z</time>
      </trkpt>
      <trkpt lat="48.32996" lon="2.73268">
        <ele>81.34</ele>
        <time>2014-06-03T09:26:44Z</time>
      </trkpt>
      <trkpt lat="48.32987" lon="2.73244">
        <ele>77.62</ele>
        <time>2014-06-03T09:27:04Z</time>
      </trkpt>
      <trkpt lat="48.32978" lon="2.73218">
        <ele>80.96</ele>
        <time>2014-06-03T09:27:23Z</time>
      </trkpt>
      <trkpt lat="48.32971" lon="2.73192">
        <ele>82.34</ele>
        <time>2014-06-03T09:27:39Z</time>
      </trkpt>
      <trkpt lat="48.32965" lon="2.73165">
        <ele>80.59</ele>
        <time>2014-06-03T09:27:59Z</time>
      </trkpt>
      <trkpt lat="48.32958" lon="2.7314">
        <ele>78.47</ele>
        <time>2014-06-03T09:28:13Z</time>
      </trkpt>
      <trkpt lat="48.32949" lon="2.73116">
        <ele>79.34</ele>
        <time>2014-06-03T09:28:29Z</time>
      </trkpt>
      <trkpt lat="48.32941" lon="2.7309">
        <ele>80.28</ele>
        <time>2014-06-03T09:28:47Z</time>
      </trkpt>
      <trkpt lat="48.32934" lon="2.73063">
        <ele>80.88</ele>
        <time>2014-06-03T09:29:06Z</time>
      </trkpt>
      <trkpt lat="48.32928" lon="2.73038">
        <ele>80.56</ele>
        <time>2014-06-03T09:29:24Z</time>
      </trkpt>
      <trkpt lat="48.32919" lon="2.73013">
        <ele>81.22</ele>
        <time>2014-06-03T09:29:41Z</time>
      </trkpt>
      <trkpt lat="48.32907" lon="2.72991">
        <ele>78.66</ele>
        <time>2014-06-03T09:29:59Z</time>
      </trkpt>
      <trkpt lat="48.32892" lon="2.72973">
        <ele>74.36</ele>
        <time>2014-06-03T09:30:17Z</time>
      </trkpt>
      <trkpt lat="48.32875" lon="2.72962">
        <ele>72.22</ele>
        <time>2014-06-03T09:30:37Z</time>
      </trkpt>
      <trkpt lat="48.32858" lon="2.72972">
        <ele>75.67</ele>
        <time>2014-06-03T09:30:52Z</time>
      </trkpt>
      <trkpt lat="48.32843" lon="2.72956">
        <ele>75.61</ele>
        <time>2014-06-03T09:31:12Z</time>
      </trkpt>
      <trkpt lat="48.32838" lon="2.72929">
        <ele>70.23</ele>
        <time>2014-06-03T09:31:35Z</time>
      </trkpt>
      <trkpt lat="48.32826" lon="2.72907">
        <ele>76.77</ele>
        <time>2014-06-03T09:31:53Z</time>
      </trkpt>
      <trkpt lat="48.32818" lon="2.72883">
        <ele>76.23</ele>
        <time>2014-06-03T09:32:12Z</time>
      </trkpt>
      <trkpt lat="48.32809" lon="2.72859">
        <ele>69.9</ele>
        <time>2014-06-03T09:32:31Z</time>
      </trkpt>
      <trkpt lat="48.328" lon="2.72833">
        <ele>73.98</ele>
        <time>2014-06-03T09:32:49Z</time>
      </trkpt>
      <trkpt lat="48.32788" lon="2.72812">
        <ele>77.08</ele>
        <time>2014-06-03T09:33:05Z</time>
      </trkpt>
      <trkpt lat="48.32802" lon="2.72794">
        <ele>81.9</ele>
        <time>2014-06-03T09:33:44Z</time>
      </trkpt>
      <trkpt lat="48.32819" lon="2.72784">
        <ele>85.3</ele>
        <time>2014-06-03T09:34:12Z</time>
      </trkpt>
      <trkpt lat="48.32836" lon="2.72774">
        <ele>81.97</ele>
        <time>2014-06-03T09:34:43Z</time>
      </trkpt>
      <trkpt lat="48.32853" lon="2.72762">
        <ele>84.9</ele>
        <time>2014-06-03T09:35:09Z</time>
      </trkpt>
      <trkpt lat="48.3287" lon="2.72753">
        <ele>91.93</ele>
        <time>2014-06-03T09:36:02Z</time>
      </trkpt>
      <trkpt lat="48.32886" lon="2.72739">
        <ele>86.17</ele>
        <time>2014-06-03T09:36:19Z</time>
      </trkpt>
      <trkpt lat="48.32902" lon="2.72727">
        <ele>87.79</ele>
        <time>2014-06-03T09:36:46Z</time>
      </trkpt>
      <trkpt lat="48.3292" lon="2.72717">
        <ele>89.06</ele>
        <time>2014-06-03T09:37:07Z</time>
      </trkpt>
      <trkpt lat="48.32937" lon="2.72705">
        <ele>90.69</ele>
        <time>2014-06-03T09:37:21Z</time>
      </trkpt>
      <trkpt lat="48.32955" lon="2.72703">
        <ele>95.08</ele>
        <time>2014-06-03T09:37:38Z</time>
      </trkpt>
      <trkpt lat="48.32972" lon="2.72694">
        <ele>91.34</ele>
        <time>2014-06-03T09:37:54Z</time>
      </trkpt>
      <trkpt lat="48.3299" lon="2.72691">
        <ele>93.43</ele>
        <time>2014-06-03T09:40:12Z</time>
      </trkpt>
      <trkpt lat="48.33008" lon="2.72687">
        <ele>93.38</ele>
        <time>2014-06-03T09:41:34Z</time>
      </trkpt>
      <trkpt lat="48.33025" lon="2.72675">
        <ele>87.42</ele>
        <time>2014-06-03T09:41:48Z</time>
      </trkpt>
      <trkpt lat="48.33042" lon="2.72664">
        <ele>87.27</ele>
        <time>2014-06-03T09:42:02Z</time>
      </trkpt>
      <trkpt lat="48.33061" lon="2.72661">
        <ele>90.06</ele>
        <time>2014-06-03T09:42:20Z</time>
      </trkpt>
      <trkpt lat="48.33079" lon="2.7265">
        <ele>88.87</ele>
        <time>2014-06-03T09:42:38Z</time>
      </trkpt>
      <trkpt lat="48.33097" lon="2.72644">
        <ele>87.72</ele>
        <time>2014-06-03T09:42:54Z</time>
      </trkpt>
      <trkpt lat="48.33114" lon="2.72634">
        <ele>87.84</ele>
        <time>2014-06-03T09:43:13Z</time>
      </trkpt>
      <trkpt lat="48.33131" lon="2.72624">
        <ele>88.54</ele>
        <time>2014-06-03T09:43:29Z</time>
      </trkpt>
      <trkpt lat="48.33148" lon="2.72613">
        <ele>94.33</ele>
        <time>2014-06-03T09:43:46Z</time>
      </trkpt>
      <trkpt lat="48.33166" lon="2.72608">
        <ele>94.37</ele>
        <time>2014-06-03T09:44:05Z</time>
      </trkpt>
      <trkpt lat="48.33184" lon="2.72601">
        <ele>93.34</ele>
        <time>2014-06-03T09:44:24Z</time>
      </trkpt>
      <trkpt lat="48.33201" lon="2.7259">
        <ele>93.34</ele>
        <time>2014-06-03T09:44:38Z</time>
      </trkpt>
      <trkpt lat="48.33207" lon="2.72564">
        <ele>89.75</ele>
        <time>2014-06-03T09:45:02Z</time>
      </trkpt>
      <trkpt lat="48.33198" lon="2.72539">
        <ele>92.55</ele>
        <time>2014-06-03T09:45:19Z</time>
      </trkpt>
      <trkpt lat="48.33191" lon="2.72513">
        <ele>92.45</ele>
        <time>2014-06-03T09:45:37Z</time>
      </trkpt>
      <trkpt lat="48.33187" lon="2.72485">
        <ele>94.31</ele>
        <time>2014-06-03T09:45:53Z</time>
      </trkpt>
      <trkpt lat="48.33181" lon="2.72459">
        <ele>94.85</ele>
        <time>2014-06-03T09:46:08Z</time>
      </trkpt>
      <trkpt lat="48.33175" lon="2.72434">
        <ele>97.83</ele>
        <time>2014-06-03T09:46:22Z</time>
      </trkpt>
      <trkpt lat="48.33168" lon="2.72407">
        <ele>97.59</ele>
        <time>2014-06-03T09:46:38Z</time>
      </trkpt>
      <trkpt lat="48.33161" lon="2.72382">
        <ele>95.86</ele>
        <time>2014-06-03T09:46:54Z</time>
      </trkpt>
      <trkpt lat="48.33149" lon="2.7236">
        <ele>95.11</ele>
        <time>2014-06-03T09:47:08Z</time>
      </trkpt>
      <trkpt lat="48.3314" lon="2.72336">
        <ele>93.55</ele>
        <time>2014-06-03T09:47:24Z</time>
      </trkpt>
      <trkpt lat="48.33132" lon="2.7231">
        <ele>89.53</ele>
        <time>2014-06-03T09:47:40Z</time>
      </trkpt>
      <trkpt lat="48.33124" lon="2.72284">
        <ele>87.8</ele>
        <time>2014-06-03T09:47:57Z</time>
      </trkpt>
      <trkpt lat="48.33117" lon="2.72257">
        <ele>87.96</ele>
        <time>2014-06-03T09:48:11Z</time>
      </trkpt>
      <trkpt lat="48.33112" lon="2.7223">
        <ele>94.78</ele>
        <time>2014-06-03T09:48:28Z</time>
      </trkpt>
      <trkpt lat="48.33104" lon="2.72204">
        <ele>97.31</ele>
        <time>2014-06-03T09:48:45Z</time>
      </trkpt>
      <trkpt lat="48.33096" lon="2.72179">
        <ele>99.15</ele>
        <time>2014-06-03T09:49:00Z</time>
      </trkpt>
      <trkpt lat="48.33089" lon="2.72154">
        <ele>99.09</ele>
        <time>2014-06-03T09:49:15Z</time>
      </trkpt>
      <trkpt lat="48.33078" lon="2.7213">
        <ele>96.5</ele>
        <time>2014-06-03T09:49:31Z</time>
      </trkpt>
      <trkpt lat="48.33069" lon="2.72105">
        <ele>98.54</ele>
        <time>2014-06-03T09:49:47Z</time>
      </trkpt>
      <trkpt lat="48.33059" lon="2.72081">
        <ele>92.42</ele>
        <time>2014-06-03T09:50:03Z</time>
      </trkpt>
      <trkpt lat="48.3305" lon="2.72057">
        <ele>88.09</ele>
        <time>2014-06-03T09:50:18Z</time>
      </trkpt>
      <trkpt lat="48.33041" lon="2.72033">
        <ele>88.61</ele>
        <time>2014-06-03T09:50:33Z</time>
      </trkpt>
      <trkpt lat="48.33031" lon="2.7201">
        <ele>86.85</ele>
        <time>2014-06-03T09:50:48Z</time>
      </trkpt>
      <trkpt lat="48.33031" lon="2.71983">
        <ele>83.54</ele>
        <time>2014-06-03T09:51:05Z</time>
      </trkpt>
      <trkpt lat="48.33043" lon="2.71961">
        <ele>84.23</ele>
        <time>2014-06-03T09:51:21Z</time>
      </trkpt>
      <trkpt lat="48.33048" lon="2.71934">
        <ele>83.91</ele>
        <time>2014-06-03T09:51:43Z</time>
      </trkpt>
      <trkpt lat="48.3304" lon="2.71909">
        <ele>83.62</ele>
        <time>2014-06-03T09:52:10Z</time>
      </trkpt>
      <trkpt lat="48.33031" lon="2.71885">
        <ele>81.49</ele>
        <time>2014-06-03T09:52:30Z</time>
      </trkpt>
      <trkpt lat="48.33022" lon="2.7186">
        <ele>82.45</ele>
        <time>2014-06-03T09:52:50Z</time>
      </trkpt>
      <trkpt lat="48.33015" lon="2.71835">
        <ele>85.96</ele>
        <time>2014-06-03T09:53:09Z</time>
      </trkpt>
      <trkpt lat="48.33007" lon="2.7181">
        <ele>85.18</ele>
        <time>2014-06-03T09:53:28Z</time>
      </trkpt>
      <trkpt lat="48.32999" lon="2.71786">
        <ele>84.34</ele>
        <time>2014-06-03T09:53:44Z</time>
      </trkpt>
      <trkpt lat="48.32989" lon="2.71762">
        <ele>80.13</ele>
        <time>2014-06-03T09:54:01Z</time>
      </trkpt>
      <trkpt lat="48.32985" lon="2.71734">
        <ele>84.27</ele>
        <time>2014-06-03T09:54:22Z</time>
      </trkpt>
      <trkpt lat="48.32977" lon="2.71708">
        <ele>85.45</ele>
        <time>2014-06-03T09:54:44Z</time>
      </trkpt>
      <trkpt lat="48.32991" lon="2.71691">
        <ele>81.85</ele>
        <time>2014-06-03T09:55:06Z</time>
      </trkpt>
      <trkpt lat="48.33008" lon="2.71678">
        <ele>79.83</ele>
        <time>2014-06-03T09:55:22Z</time>
      </trkpt>
      <trkpt lat="48.33023" lon="2.71665">
        <ele>78.4</ele>
        <time>2014-06-03T09:55:40Z</time>
      </trkpt>
      <trkpt lat="48.33042" lon="2.71657">
        <ele>76.31</ele>
        <time>2014-06-03T09:55:58Z</time>
      </trkpt>
      <trkpt lat="48.3306" lon="2.71647">
        <ele>73.83</ele>
        <time>2014-06-03T09:56:15Z</time>
      </trkpt>
      <trkpt lat="48.33076" lon="2.71635">
        <ele>73.03</ele>
        <time>2014-06-03T09:56:35Z</time>
      </trkpt>
      <trkpt lat="48.33094" lon="2.71626">
        <ele>74.58</ele>
        <time>2014-06-03T09:56:54Z</time>
      </trkpt>
      <trkpt lat="48.33109" lon="2.7161">
        <ele>76.23</ele>
        <time>2014-06-03T09:57:11Z</time>
      </trkpt>
      <trkpt lat="48.33118" lon="2.71587">
        <ele>73.06</ele>
        <time>2014-06-03T09:57:30Z</time>
      </trkpt>
      <trkpt lat="48.33126" lon="2.71561">
        <ele>71.47</ele>
        <time>2014-06-03T09:57:49Z</time>
      </trkpt>
      <trkpt lat="48.33135" lon="2.71537">
        <ele>72.67</ele>
        <time>2014-06-03T09:58:05Z</time>
      </trkpt>
      <trkpt lat="48.33144" lon="2.71514">
        <ele>72.37</ele>
        <time>2014-06-03T09:58:21Z</time>
      </trkpt>
      <trkpt lat="48.33156" lon="2.71492">
        <ele>69.4</ele>
        <time>2014-06-03T09:58:40Z</time>
      </trkpt>
      <trkpt lat="48.33169" lon="2.71472">
        <ele>69.3</ele>
        <time>2014-06-03T09:59:26Z</time>
      </trkpt>
      <trkpt lat="48.33159" lon="2.71448">
        <ele>70.71</ele>
        <time>2014-06-03T09:59:43Z</time>
      </trkpt>
      <trkpt lat="48.33146" lon="2.71427">
        <ele>73.15</ele>
        <time>2014-06-03T10:00:01Z</time>
      </trkpt>
      <trkpt lat="48.33133" lon="2.71408">
        <ele>72.37</ele>
        <time>2014-06-03T10:00:17Z</time>
      </trkpt>
      <trkpt lat="48.33119" lon="2.7139">
        <ele>70.97</ele>
        <time>2014-06-03T10:00:31Z</time>
      </trkpt>
      <trkpt lat="48.33104" lon="2.71373">
        <ele>70.34</ele>
        <time>2014-06-03T10:00:46Z</time>
      </trkpt>
      <trkpt lat="48.33091" lon="2.71354">
        <ele>72.18</ele>
        <time>2014-06-03T10:01:02Z</time>
      </trkpt>
      <trkpt lat="48.3308" lon="2.71331">
        <ele>72.35</ele>
        <time>2014-06-03T10:01:17Z</time>
      </trkpt>
      <trkpt lat="48.33068" lon="2.71311">
        <ele>72.35</ele>
        <time>2014-06-03T10:01:32Z</time>
      </trkpt>
      <trkpt lat="48.33054" lon="2.71291">
        <ele>73.83</ele>
        <time>2014-06-03T10:01:48Z</time>
      </trkpt>
      <trkpt lat="48.33039" lon="2.71273">
        <ele>69.28</ele>
        <time>2014-06-03T10:02:03Z</time>
      </trkpt>
      <trkpt lat="48.33027" lon="2.71252">
        <ele>68.78</ele>
        <time>2014-06-03T10:02:20Z</time>
      </trkpt>
      <trkpt lat="48.33017" lon="2.71229">
        <ele>70.12</ele>
        <time>2014-06-03T10:02:35Z</time>
      </trkpt>
      <trkpt lat="48.33008" lon="2.71204">
        <ele>72.08</ele>
        <time>2014-06-03T10:02:51Z</time>
      </trkpt>
      <trkpt lat="48.32997" lon="2.7118">
        <ele>69.16</ele>
        <time>2014-06-03T10:03:06Z</time>
      </trkpt>
      <trkpt lat="48.32987" lon="2.71158">
        <ele>69.34</ele>
        <time>2014-06-03T10:03:20Z</time>
      </trkpt>
      <trkpt lat="48.32979" lon="2.71134">
        <ele>71.22</ele>
        <time>2014-06-03T10:03:35Z</time>
      </trkpt>
      <trkpt lat="48.32971" lon="2.71108">
        <ele>73.34</ele>
        <time>2014-06-03T10:03:51Z</time>
      </trkpt>
      <trkpt lat="48.32964" lon="2.71081">
        <ele>73.34</ele>
        <time>2014-06-03T10:04:09Z</time>
      </trkpt>
      <trkpt lat="48.32956" lon="2.71057">
        <ele>73.97</ele>
        <time>2014-06-03T10:04:26Z</time>
      </trkpt>
      <trkpt lat="48.32947" lon="2.71033">
        <ele>75.31</ele>
        <time>2014-06-03T10:04:43Z</time>
      </trkpt>
      <trkpt lat="48.32938" lon="2.71009">
        <ele>76.47</ele>
        <time>2014-06-03T10:05:01Z</time>
      </trkpt>
      <trkpt lat="48.32926" lon="2.70987">
        <ele>73.6</ele>
        <time>2014-06-03T10:05:15Z</time>
      </trkpt>
      <trkpt lat="48.32915" lon="2.70964">
        <ele>71.36</ele>
        <time>2014-06-03T10:05:29Z</time>
      </trkpt>
      <trkpt lat="48.32906" lon="2.7094">
        <ele>70.84</ele>
        <time>2014-06-03T10:05:44Z</time>
      </trkpt>
      <trkpt lat="48.32896" lon="2.70916">
        <ele>70.47</ele>
        <time>2014-06-03T10:05:59Z</time>
      </trkpt>
      <trkpt lat="48.32886" lon="2.70893">
        <ele>71.34</ele>
        <time>2014-06-03T10:06:14Z</time>
      </trkpt>
      <trkpt lat="48.32877" lon="2.7087">
        <ele>72.59</ele>
        <time>2014-06-03T10:06:29Z</time>
      </trkpt>
      <trkpt lat="48.32866" lon="2.70848">
        <ele>71.19</ele>
        <time>2014-06-03T10:06:44Z</time>
      </trkpt>
      <trkpt lat="48.32855" lon="2.70826">
        <ele>72.28</ele>
        <time>2014-06-03T10:06:59Z</time>
      </trkpt>
      <trkpt lat="48.32844" lon="2.70803">
        <ele>73.3</ele>
        <time>2014-06-03T10:07:24Z</time>
      </trkpt>
      <trkpt lat="48.32834" lon="2.7078">
        <ele>72.41</ele>
        <time>2014-06-03T10:07:40Z</time>
      </trkpt>
      <trkpt lat="48.32824" lon="2.70758">
        <ele>74.07</ele>
        <time>2014-06-03T10:07:59Z</time>
      </trkpt>
      <trkpt lat="48.32809" lon="2.7074">
        <ele>73.9</ele>
        <time>2014-06-03T10:08:36Z</time>
      </trkpt>
      <trkpt lat="48.32791" lon="2.70748">
        <ele>70.86</ele>
        <time>2014-06-03T10:08:51Z</time>
      </trkpt>
      <trkpt lat="48.32774" lon="2.70759">
        <ele>69.9</ele>
        <time>2014-06-03T10:09:07Z</time>
      </trkpt>
      <trkpt lat="48.32756" lon="2.7077">
        <ele>68.59</ele>
        <time>2014-06-03T10:09:22Z</time>
      </trkpt>
      <trkpt lat="48.32739" lon="2.70781">
        <ele>68.39</ele>
        <time>2014-06-03T10:09:39Z</time>
      </trkpt>
      <trkpt lat="48.32722" lon="2.70793">
        <ele>67.07</ele>
        <time>2014-06-03T10:09:56Z</time>
      </trkpt>
      <trkpt lat="48.32704" lon="2.70785">
        <ele>69.03</ele>
        <time>2014-06-03T10:11:26Z</time>
      </trkpt>
      <trkpt lat="48.32692" lon="2.70764">
        <ele>69.52</ele>
        <time>2014-06-03T10:11:43Z</time>
      </trkpt>
      <trkpt lat="48.32681" lon="2.70741">
        <ele>69.03</ele>
        <time>2014-06-03T10:11:59Z</time>
      </trkpt>
      <trkpt lat="48.32669" lon="2.70719">
        <ele>70.58</ele>
        <time>2014-06-03T10:12:15Z</time>
      </trkpt>
      <trkpt lat="48.32659" lon="2.70697">
        <ele>70.53</ele>
        <time>2014-06-03T10:12:31Z</time>
      </trkpt>
      <trkpt lat="48.32647" lon="2.70675">
        <ele>70.43</ele>
        <time>2014-06-03T10:12:47Z</time>
      </trkpt>
      <trkpt lat="48.32634" lon="2.70655">
        <ele>73.23</ele>
        <time>2014-06-03T10:13:03Z</time>
      </trkpt>
      <trkpt lat="48.32623" lon="2.70631">
        <ele>72.21</ele>
        <time>2014-06-03T10:13:21Z</time>
      </trkpt>
      <trkpt lat="48.32611" lon="2.70611">
        <ele>72.81</ele>
        <time>2014-06-03T10:13:38Z</time>
      </trkpt>
      <trkpt lat="48.32608" lon="2.70583">
        <ele>78.2</ele>
        <time>2014-06-03T10:14:00Z</time>
      </trkpt>
      <trkpt lat="48.32597" lon="2.70561">
        <ele>81.52</ele>
        <time>2014-06-03T10:14:19Z</time>
      </trkpt>
      <trkpt lat="48.32584" lon="2.70541">
        <ele>77.32</ele>
        <time>2014-06-03T10:14:33Z</time>
      </trkpt>
      <trkpt lat="48.32573" lon="2.7052">
        <ele>77.37</ele>
        <time>2014-06-03T10:14:48Z</time>
      </trkpt>
      <trkpt lat="48.32563" lon="2.70497">
        <ele>76.36</ele>
        <time>2014-06-03T10:15:04Z</time>
      </trkpt>
      <trkpt lat="48.32553" lon="2.70473">
        <ele>77.22</ele>
        <time>2014-06-03T10:15:21Z</time>
      </trkpt>
      <trkpt lat="48.32545" lon="2.70448">
        <ele>77.84</ele>
        <time>2014-06-03T10:15:37Z</time>
      </trkpt>
      <trkpt lat="48.32536" lon="2.70423">
        <ele>78.39</ele>
        <time>2014-06-03T10:15:54Z</time>
      </trkpt>
      <trkpt lat="48.32528" lon="2.70398">
        <ele>78.45</ele>
        <time>2014-06-03T10:16:10Z</time>
      </trkpt>
      <trkpt lat="48.3252" lon="2.70374">
        <ele>78.82</ele>
        <time>2014-06-03T10:16:26Z</time>
      </trkpt>
      <trkpt lat="48.32512" lon="2.70349">
        <ele>79.87</ele>
        <time>2014-06-03T10:16:42Z</time>
      </trkpt>
      <trkpt lat="48.32503" lon="2.70324">
        <ele>78.42</ele>
        <time>2014-06-03T10:16:58Z</time>
      </trkpt>
      <trkpt lat="48.32496" lon="2.70298">
        <ele>79.79</ele>
        <time>2014-06-03T10:17:14Z</time>
      </trkpt>
      <trkpt lat="48.32486" lon="2.70274">
        <ele>79.42</ele>
        <time>2014-06-03T10:17:31Z</time>
      </trkpt>
      <trkpt lat="48.32477" lon="2.7025">
        <ele>78.6</ele>
        <time>2014-06-03T10:17:47Z</time>
      </trkpt>
      <trkpt lat="48.32468" lon="2.70225">
        <ele>76.99</ele>
        <time>2014-06-03T10:18:03Z</time>
      </trkpt>
      <trkpt lat="48.32457" lon="2.70201">
        <ele>74.33</ele>
        <time>2014-06-03T10:18:19Z</time>
      </trkpt>
      <trkpt lat="48.32451" lon="2.70174">
        <ele>80.17</ele>
        <time>2014-06-03T10:18:34Z</time>
      </trkpt>
      <trkpt lat="48.32443" lon="2.7015">
        <ele>79.04</ele>
        <time>2014-06-03T10:18:49Z</time>
      </trkpt>
      <trkpt lat="48.32436" lon="2.70125">
        <ele>79.21</ele>
        <time>2014-06-03T10:19:04Z</time>
      </trkpt>
      <trkpt lat="48.3243" lon="2.70099">
        <ele>80.54</ele>
        <time>2014-06-03T10:19:22Z</time>
      </trkpt>
      <trkpt lat="48.32421" lon="2.70075">
        <ele>83.12</ele>
        <time>2014-06-03T10:19:37Z</time>
      </trkpt>
      <trkpt lat="48.32413" lon="2.70049">
        <ele>82.46</ele>
        <time>2014-06-03T10:19:53Z</time>
      </trkpt>
      <trkpt lat="48.32405" lon="2.70024">
        <ele>82</ele>
        <time>2014-06-03T10:20:09Z</time>
      </trkpt>
      <trkpt lat="48.32399" lon="2.69998">
        <ele>80.09</ele>
        <time>2014-06-03T10:20:25Z</time>
      </trkpt>
      <trkpt lat="48.3239" lon="2.69972">
        <ele>76.78</ele>
        <time>2014-06-03T10:20:39Z</time>
      </trkpt>
      <trkpt lat="48.32384" lon="2.69945">
        <ele>78.34</ele>
        <time>2014-06-03T10:20:56Z</time>
      </trkpt>
      <trkpt lat="48.3238" lon="2.69918">
        <ele>80.37</ele>
        <time>2014-06-03T10:21:14Z</time>
      </trkpt>
      <trkpt lat="48.32375" lon="2.69892">
        <ele>81.27</ele>
        <time>2014-06-03T10:21:31Z</time>
      </trkpt>
      <trkpt lat="48.32371" lon="2.69864">
        <ele>88.05</ele>
        <time>2014-06-03T10:21:47Z</time>
      </trkpt>
      <trkpt lat="48.3236" lon="2.69841">
        <ele>77.3</ele>
        <time>2014-06-03T10:22:00Z</time>
      </trkpt>
      <trkpt lat="48.32358" lon="2.69814">
        <ele>83.45</ele>
        <time>2014-06-03T10:22:15Z</time>
      </trkpt>
      <trkpt lat="48.32351" lon="2.69788">
        <ele>77.15</ele>
        <time>2014-06-03T10:22:29Z</time>
      </trkpt>
      <trkpt lat="48.32348" lon="2.69761">
        <ele>76.75</ele>
        <time>2014-06-03T10:22:46Z</time>
      </trkpt>
      <trkpt lat="48.32335" lon="2.69742">
        <ele>73.53</ele>
        <time>2014-06-03T10:23:14Z</time>
      </trkpt>
      <trkpt lat="48.32319" lon="2.69755">
        <ele>72.85</ele>
        <time>2014-06-03T10:23:29Z</time>
      </trkpt>
      <trkpt lat="48.32302" lon="2.69769">
        <ele>74.47</ele>
        <time>2014-06-03T10:23:44Z</time>
      </trkpt>
      <trkpt lat="48.32287" lon="2.69785">
        <ele>72.88</ele>
        <time>2014-06-03T10:23:59Z</time>
      </trkpt>
      <trkpt lat="48.32274" lon="2.69803">
        <ele>74.53</ele>
        <time>2014-06-03T10:24:14Z</time>
      </trkpt>
      <trkpt lat="48.32259" lon="2.69821">
        <ele>74.62</ele>
        <time>2014-06-03T10:24:29Z</time>
      </trkpt>
      <trkpt lat="48.32244" lon="2.69839">
        <ele>76.47</ele>
        <time>2014-06-03T10:24:53Z</time>
      </trkpt>
      <trkpt lat="48.3223" lon="2.69859">
        <ele>74.08</ele>
        <time>2014-06-03T10:25:09Z</time>
      </trkpt>
      <trkpt lat="48.32217" lon="2.69879">
        <ele>72.54</ele>
        <time>2014-06-03T10:25:23Z</time>
      </trkpt>
      <trkpt lat="48.32202" lon="2.69897">
        <ele>71.49</ele>
        <time>2014-06-03T10:25:41Z</time>
      </trkpt>
      <trkpt lat="48.32185" lon="2.69902">
        <ele>70.16</ele>
        <time>2014-06-03T10:25:57Z</time>
      </trkpt>
      <trkpt lat="48.32166" lon="2.69908">
        <ele>68.42</ele>
        <time>2014-06-03T10:26:12Z</time>
      </trkpt>
      <trkpt lat="48.32148" lon="2.69907">
        <ele>70.46</ele>
        <time>2014-06-03T10:26:28Z</time>
      </trkpt>
      <trkpt lat="48.32129" lon="2.69905">
        <ele>72.53</ele>
        <time>2014-06-03T10:26:44Z</time>
      </trkpt>
      <trkpt lat="48.32111" lon="2.69905">
        <ele>72.76</ele>
        <time>2014-06-03T10:26:58Z</time>
      </trkpt>
      <trkpt lat="48.32093" lon="2.69908">
        <ele>67.34</ele>
        <time>2014-06-03T10:27:15Z</time>
      </trkpt>
      <trkpt lat="48.32075" lon="2.69904">
        <ele>65.35</ele>
        <time>2014-06-03T10:27:30Z</time>
      </trkpt>
      <trkpt lat="48.32056" lon="2.69904">
        <ele>67.71</ele>
        <time>2014-06-03T10:27:46Z</time>
      </trkpt>
      <trkpt lat="48.32041" lon="2.69889">
        <ele>67.26</ele>
        <time>2014-06-03T10:28:41Z</time>
      </trkpt>
      <trkpt lat="48.32037" lon="2.69861">
        <ele>71.83</ele>
        <time>2014-06-03T10:28:58Z</time>
      </trkpt>
      <trkpt lat="48.32033" lon="2.69835">
        <ele>75.26</ele>
        <time>2014-06-03T10:29:13Z</time>
      </trkpt>
      <trkpt lat="48.32025" lon="2.69808">
        <ele>73.84</ele>
        <time>2014-06-03T10:29:29Z</time>
      </trkpt>
      <trkpt lat="48.32018" lon="2.69783">
        <ele>75.71</ele>
        <time>2014-06-03T10:29:44Z</time>
      </trkpt>
      <trkpt lat="48.3201" lon="2.69759">
        <ele>76.84</ele>
        <time>2014-06-03T10:29:59Z</time>
      </trkpt>
      <trkpt lat="48.32" lon="2.69735">
        <ele>74.37</ele>
        <time>2014-06-03T10:30:15Z</time>
      </trkpt>
      <trkpt lat="48.31992" lon="2.69709">
        <ele>73.37</ele>
        <time>2014-06-03T10:30:31Z</time>
      </trkpt>
      <trkpt lat="48.31984" lon="2.69685">
        <ele>74.34</ele>
        <time>2014-06-03T10:30:47Z</time>
      </trkpt>
      <trkpt lat="48.31974" lon="2.69662">
        <ele>74.46</ele>
        <time>2014-06-03T10:32:20Z</time>
      </trkpt>
      <trkpt lat="48.31965" lon="2.69636">
        <ele>69.05</ele>
        <time>2014-06-03T10:32:37Z</time>
      </trkpt>
      <trkpt lat="48.31952" lon="2.69616">
        <ele>64.79</ele>
        <time>2014-06-03T10:32:53Z</time>
      </trkpt>
      <trkpt lat="48.31943" lon="2.69592">
        <ele>65.01</ele>
        <time>2014-06-03T10:33:09Z</time>
      </trkpt>
      <trkpt lat="48.31935" lon="2.69567">
        <ele>62.34</ele>
        <time>2014-06-03T10:33:25Z</time>
      </trkpt>
      <trkpt lat="48.31925" lon="2.69544">
        <ele>63.79</ele>
        <time>2014-06-03T10:33:44Z</time>
      </trkpt>
      <trkpt lat="48.31922" lon="2.69516">
        <ele>69.62</ele>
        <time>2014-06-03T10:34:01Z</time>
      </trkpt>
      <trkpt lat="48.31914" lon="2.6949">
        <ele>70</ele>
        <time>2014-06-03T10:34:18Z</time>
      </trkpt>
      <trkpt lat="48.31907" lon="2.69465">
        <ele>69.81</ele>
        <time>2014-06-03T10:34:32Z</time>
      </trkpt>
      <trkpt lat="48.31899" lon="2.69439">
        <ele>67.64</ele>
        <time>2014-06-03T10:34:48Z</time>
      </trkpt>
      <trkpt lat="48.31889" lon="2.69416">
        <ele>66.58</ele>
        <time>2014-06-03T10:35:04Z</time>
      </trkpt>
      <trkpt lat="48.31877" lon="2.69394">
        <ele>67.55</ele>
        <time>2014-06-03T10:35:19Z</time>
      </trkpt>
      <trkpt lat="48.31867" lon="2.69371">
        <ele>64.48</ele>
        <time>2014-06-03T10:35:35Z</time>
      </trkpt>
      <trkpt lat="48.31852" lon="2.69355">
        <ele>63</ele>
        <time>2014-06-03T10:35:54Z</time>
      </trkpt>
      <trkpt lat="48.31836" lon="2.6934">
        <ele>63.38</ele>
        <time>2014-06-03T10:36:12Z</time>
      </trkpt>
      <trkpt lat="48.3182" lon="2.6933">
        <ele>62</ele>
        <time>2014-06-03T10:36:28Z</time>
      </trkpt>
      <trkpt lat="48.31803" lon="2.69315">
        <ele>65.67</ele>
        <time>2014-06-03T10:36:42Z</time>
      </trkpt>
      <trkpt lat="48.31787" lon="2.69301">
        <ele>64.84</ele>
        <time>2014-06-03T10:36:57Z</time>
      </trkpt>
      <trkpt lat="48.31771" lon="2.69287">
        <ele>62.63</ele>
        <time>2014-06-03T10:37:24Z</time>
      </trkpt>
      <trkpt lat="48.31755" lon="2.69276">
        <ele>63.33</ele>
        <time>2014-06-03T10:38:03Z</time>
      </trkpt>
      <trkpt lat="48.31739" lon="2.69262">
        <ele>64.33</ele>
        <time>2014-06-03T10:38:19Z</time>
      </trkpt>
      <trkpt lat="48.31728" lon="2.6924">
        <ele>62.68</ele>
        <time>2014-06-03T10:38:49Z</time>
      </trkpt>
      <trkpt lat="48.31712" lon="2.69228">
        <ele>68.07</ele>
        <time>2014-06-03T10:39:06Z</time>
      </trkpt>
      <trkpt lat="48.31696" lon="2.69215">
        <ele>72.53</ele>
        <time>2014-06-03T10:39:40Z</time>
      </trkpt>
      <trkpt lat="48.31682" lon="2.69196">
        <ele>70.28</ele>
        <time>2014-06-03T10:39:53Z</time>
      </trkpt>
      <trkpt lat="48.31665" lon="2.69184">
        <ele>71.22</ele>
        <time>2014-06-03T10:40:10Z</time>
      </trkpt>
      <trkpt lat="48.3165" lon="2.69168">
        <ele>73.3</ele>
        <time>2014-06-03T10:40:23Z</time>
      </trkpt>
      <trkpt lat="48.31632" lon="2.69163">
        <ele>71.32</ele>
        <time>2014-06-03T10:40:59Z</time>
      </trkpt>
      <trkpt lat="48.31628" lon="2.6919">
        <ele>68.04</ele>
        <time>2014-06-03T10:41:14Z</time>
      </trkpt>
      <trkpt lat="48.31636" lon="2.69216">
        <ele>64.53</ele>
        <time>2014-06-03T10:42:38Z</time>
      </trkpt>
      <trkpt lat="48.31651" lon="2.69231">
        <ele>63.2</ele>
        <time>2014-06-03T10:42:53Z</time>
      </trkpt>
      <trkpt lat="48.31657" lon="2.69257">
        <ele>59.19</ele>
        <time>2014-06-03T10:43:20Z</time>
      </trkpt>
      <trkpt lat="48.31645" lon="2.69279">
        <ele>59.34</ele>
        <time>2014-06-03T10:43:33Z</time>
      </trkpt>
      <trkpt lat="48.31634" lon="2.69302">
        <ele>59.34</ele>
        <time>2014-06-03T10:44:07Z</time>
      </trkpt>
      <trkpt lat="48.31623" lon="2.69324">
        <ele>62.86</ele>
        <time>2014-06-03T10:44:54Z</time>
      </trkpt>
      <trkpt lat="48.31611" lon="2.69346">
        <ele>65.2</ele>
        <time>2014-06-03T10:45:16Z</time>
      </trkpt>
      <trkpt lat="48.31601" lon="2.69369">
        <ele>64.83</ele>
        <time>2014-06-03T10:45:56Z</time>
      </trkpt>
      <trkpt lat="48.3159" lon="2.69391">
        <ele>62.71</ele>
        <time>2014-06-03T10:46:10Z</time>
      </trkpt>
      <trkpt lat="48.31581" lon="2.69415">
        <ele>64.76</ele>
        <time>2014-06-03T10:46:25Z</time>
      </trkpt>
      <trkpt lat="48.31573" lon="2.6944">
        <ele>65.57</ele>
        <time>2014-06-03T10:46:40Z</time>
      </trkpt>
      <trkpt lat="48.31591" lon="2.69436">
        <ele>64.97</ele>
        <time>2014-06-03T10:46:57Z</time>
      </trkpt>
      <trkpt lat="48.31609" lon="2.69428">
        <ele>64.43</ele>
        <time>2014-06-03T10:47:11Z</time>
      </trkpt>
      <trkpt lat="48.31624" lon="2.69412">
        <ele>67</ele>
        <time>2014-06-03T10:47:48Z</time>
      </trkpt>
      <trkpt lat="48.31636" lon="2.69432">
        <ele>61.85</ele>
        <time>2014-06-03T10:48:33Z</time>
      </trkpt>
      <trkpt lat="48.31652" lon="2.69446">
        <ele>58.39</ele>
        <time>2014-06-03T10:51:14Z</time>
      </trkpt>
      <trkpt lat="48.3164" lon="2.69425">
        <ele>57.14</ele>
        <time>2014-06-03T11:22:51Z</time>
      </trkpt>
      <trkpt lat="48.31652" lon="2.69447">
        <ele>58.54</ele>
        <time>2014-06-03T11:29:16Z</time>
      </trkpt>
      <trkpt lat="48.31634" lon="2.69447">
        <ele>58.84</ele>
        <time>2014-06-03T11:31:30Z</time>
      </trkpt>
      <trkpt lat="48.31615" lon="2.69442">
        <ele>58.37</ele>
        <time>2014-06-03T11:31:51Z</time>
      </trkpt>
      <trkpt lat="48.31598" lon="2.69447">
        <ele>54.39</ele>
        <time>2014-06-03T11:33:20Z</time>
      </trkpt>
      <trkpt lat="48.31584" lon="2.69465">
        <ele>58.62</ele>
        <time>2014-06-03T11:34:59Z</time>
      </trkpt>
      <trkpt lat="48.31567" lon="2.69475">
        <ele>58.08</ele>
        <time>2014-06-03T11:35:22Z</time>
      </trkpt>
      <trkpt lat="48.31552" lon="2.69493">
        <ele>57.71</ele>
        <time>2014-06-03T11:35:40Z</time>
      </trkpt>
      <trkpt lat="48.31542" lon="2.69515">
        <ele>56.36</ele>
        <time>2014-06-03T11:35:56Z</time>
      </trkpt>
      <trkpt lat="48.31531" lon="2.69538">
        <ele>62.27</ele>
        <time>2014-06-03T11:36:14Z</time>
      </trkpt>
      <trkpt lat="48.31519" lon="2.6956">
        <ele>62.66</ele>
        <time>2014-06-03T11:36:31Z</time>
      </trkpt>
      <trkpt lat="48.31511" lon="2.69584">
        <ele>59.35</ele>
        <time>2014-06-03T11:36:46Z</time>
      </trkpt>
      <trkpt lat="48.315" lon="2.69606">
        <ele>58.4</ele>
        <time>2014-06-03T11:37:04Z</time>
      </trkpt>
      <trkpt lat="48.31497" lon="2.69633">
        <ele>57.3</ele>
        <time>2014-06-03T11:37:20Z</time>
      </trkpt>
      <trkpt lat="48.31489" lon="2.69658">
        <ele>55.66</ele>
        <time>2014-06-03T11:37:37Z</time>
      </trkpt>
      <trkpt lat="48.31482" lon="2.69684">
        <ele>54.4</ele>
        <time>2014-06-03T11:37:52Z</time>
      </trkpt>
      <trkpt lat="48.31476" lon="2.69711">
        <ele>55.01</ele>
        <time>2014-06-03T11:38:12Z</time>
      </trkpt>
      <trkpt lat="48.31468" lon="2.69736">
        <ele>50.43</ele>
        <time>2014-06-03T11:38:28Z</time>
      </trkpt>
      <trkpt lat="48.31457" lon="2.69759">
        <ele>56.78</ele>
        <time>2014-06-03T11:38:44Z</time>
      </trkpt>
      <trkpt lat="48.31448" lon="2.69783">
        <ele>60.68</ele>
        <time>2014-06-03T11:39:03Z</time>
      </trkpt>
      <trkpt lat="48.31446" lon="2.69811">
        <ele>63.32</ele>
        <time>2014-06-03T11:39:17Z</time>
      </trkpt>
      <trkpt lat="48.31443" lon="2.69839">
        <ele>60.9</ele>
        <time>2014-06-03T11:39:34Z</time>
      </trkpt>
      <trkpt lat="48.31454" lon="2.69862">
        <ele>65.24</ele>
        <time>2014-06-03T11:40:01Z</time>
      </trkpt>
      <trkpt lat="48.31472" lon="2.69863">
        <ele>66.19</ele>
        <time>2014-06-03T11:40:18Z</time>
      </trkpt>
      <trkpt lat="48.3149" lon="2.69857">
        <ele>65.53</ele>
        <time>2014-06-03T11:40:39Z</time>
      </trkpt>
      <trkpt lat="48.31508" lon="2.69858">
        <ele>65.81</ele>
        <time>2014-06-03T11:40:56Z</time>
      </trkpt>
      <trkpt lat="48.31526" lon="2.69868">
        <ele>68.76</ele>
        <time>2014-06-03T11:41:17Z</time>
      </trkpt>
      <trkpt lat="48.31543" lon="2.69878">
        <ele>68.19</ele>
        <time>2014-06-03T11:41:41Z</time>
      </trkpt>
      <trkpt lat="48.3156" lon="2.6989">
        <ele>70.26</ele>
        <time>2014-06-03T11:41:54Z</time>
      </trkpt>
      <trkpt lat="48.31575" lon="2.69904">
        <ele>61.48</ele>
        <time>2014-06-03T11:42:10Z</time>
      </trkpt>
      <trkpt lat="48.31588" lon="2.69924">
        <ele>60.37</ele>
        <time>2014-06-03T11:42:28Z</time>
      </trkpt>
      <trkpt lat="48.31599" lon="2.69946">
        <ele>62.83</ele>
        <time>2014-06-03T11:42:56Z</time>
      </trkpt>
      <trkpt lat="48.31614" lon="2.69962">
        <ele>62.48</ele>
        <time>2014-06-03T11:43:41Z</time>
      </trkpt>
      <trkpt lat="48.31624" lon="2.69985">
        <ele>65.98</ele>
        <time>2014-06-03T11:43:54Z</time>
      </trkpt>
      <trkpt lat="48.31635" lon="2.70007">
        <ele>62.07</ele>
        <time>2014-06-03T11:44:14Z</time>
      </trkpt>
      <trkpt lat="48.31643" lon="2.70032">
        <ele>66.91</ele>
        <time>2014-06-03T11:44:29Z</time>
      </trkpt>
      <trkpt lat="48.31648" lon="2.7006">
        <ele>61.39</ele>
        <time>2014-06-03T11:44:48Z</time>
      </trkpt>
      <trkpt lat="48.31648" lon="2.70088">
        <ele>59.4</ele>
        <time>2014-06-03T11:45:04Z</time>
      </trkpt>
      <trkpt lat="48.31642" lon="2.70115">
        <ele>57.37</ele>
        <time>2014-06-03T11:45:21Z</time>
      </trkpt>
      <trkpt lat="48.31642" lon="2.70143">
        <ele>56.96</ele>
        <time>2014-06-03T11:45:39Z</time>
      </trkpt>
      <trkpt lat="48.31644" lon="2.7017">
        <ele>57.1</ele>
        <time>2014-06-03T11:45:57Z</time>
      </trkpt>
      <trkpt lat="48.3165" lon="2.70197">
        <ele>62.07</ele>
        <time>2014-06-03T11:46:13Z</time>
      </trkpt>
      <trkpt lat="48.31653" lon="2.70225">
        <ele>54.04</ele>
        <time>2014-06-03T11:46:27Z</time>
      </trkpt>
      <trkpt lat="48.31659" lon="2.70251">
        <ele>55.79</ele>
        <time>2014-06-03T11:46:42Z</time>
      </trkpt>
      <trkpt lat="48.31667" lon="2.70277">
        <ele>58.54</ele>
        <time>2014-06-03T11:46:58Z</time>
      </trkpt>
      <trkpt lat="48.31676" lon="2.70301">
        <ele>59.4</ele>
        <time>2014-06-03T11:47:16Z</time>
      </trkpt>
      <trkpt lat="48.31682" lon="2.70328">
        <ele>54.84</ele>
        <time>2014-06-03T11:47:32Z</time>
      </trkpt>
      <trkpt lat="48.31687" lon="2.70355">
        <ele>59.4</ele>
        <time>2014-06-03T11:47:49Z</time>
      </trkpt>
      <trkpt lat="48.31691" lon="2.70382">
        <ele>58.73</ele>
        <time>2014-06-03T11:48:03Z</time>
      </trkpt>
      <trkpt lat="48.31696" lon="2.70409">
        <ele>61.57</ele>
        <time>2014-06-03T11:48:19Z</time>
      </trkpt>
      <trkpt lat="48.31705" lon="2.70434">
        <ele>66.03</ele>
        <time>2014-06-03T11:48:33Z</time>
      </trkpt>
      <trkpt lat="48.31712" lon="2.70459">
        <ele>63.67</ele>
        <time>2014-06-03T11:48:51Z</time>
      </trkpt>
      <trkpt lat="48.31717" lon="2.70488">
        <ele>64.77</ele>
        <time>2014-06-03T11:49:08Z</time>
      </trkpt>
      <trkpt lat="48.31723" lon="2.70513">
        <ele>62.3</ele>
        <time>2014-06-03T11:49:23Z</time>
      </trkpt>
      <trkpt lat="48.31729" lon="2.70541">
        <ele>60.94</ele>
        <time>2014-06-03T11:49:39Z</time>
      </trkpt>
      <trkpt lat="48.31732" lon="2.70567">
        <ele>59.08</ele>
        <time>2014-06-03T11:49:56Z</time>
      </trkpt>
      <trkpt lat="48.31734" lon="2.70595">
        <ele>63.16</ele>
        <time>2014-06-03T11:50:08Z</time>
      </trkpt>
      <trkpt lat="48.31744" lon="2.7062">
        <ele>63.05</ele>
        <time>2014-06-03T11:50:23Z</time>
      </trkpt>
      <trkpt lat="48.31754" lon="2.70643">
        <ele>62.2</ele>
        <time>2014-06-03T11:50:38Z</time>
      </trkpt>
      <trkpt lat="48.31758" lon="2.7067">
        <ele>63.93</ele>
        <time>2014-06-03T11:50:52Z</time>
      </trkpt>
      <trkpt lat="48.31763" lon="2.70697">
        <ele>63.53</ele>
        <time>2014-06-03T11:51:08Z</time>
      </trkpt>
      <trkpt lat="48.31769" lon="2.70723">
        <ele>59.35</ele>
        <time>2014-06-03T11:51:24Z</time>
      </trkpt>
      <trkpt lat="48.31771" lon="2.7075">
        <ele>61.84</ele>
        <time>2014-06-03T11:51:40Z</time>
      </trkpt>
      <trkpt lat="48.31778" lon="2.70777">
        <ele>62.36</ele>
        <time>2014-06-03T11:51:54Z</time>
      </trkpt>
      <trkpt lat="48.31783" lon="2.70805">
        <ele>58.47</ele>
        <time>2014-06-03T11:52:15Z</time>
      </trkpt>
      <trkpt lat="48.31789" lon="2.70831">
        <ele>57.31</ele>
        <time>2014-06-03T11:52:30Z</time>
      </trkpt>
      <trkpt lat="48.31795" lon="2.70857">
        <ele>58.67</ele>
        <time>2014-06-03T11:52:45Z</time>
      </trkpt>
      <trkpt lat="48.31798" lon="2.70885">
        <ele>61.2</ele>
        <time>2014-06-03T11:53:01Z</time>
      </trkpt>
      <trkpt lat="48.318" lon="2.70911">
        <ele>61.91</ele>
        <time>2014-06-03T11:53:25Z</time>
      </trkpt>
      <trkpt lat="48.31781" lon="2.70913">
        <ele>60.7</ele>
        <time>2014-06-03T11:54:11Z</time>
      </trkpt>
      <trkpt lat="48.31764" lon="2.70904">
        <ele>63.22</ele>
        <time>2014-06-03T11:54:31Z</time>
      </trkpt>
      <trkpt lat="48.31746" lon="2.709">
        <ele>62.1</ele>
        <time>2014-06-03T11:54:49Z</time>
      </trkpt>
      <trkpt lat="48.31728" lon="2.70895">
        <ele>62.35</ele>
        <time>2014-06-03T11:55:04Z</time>
      </trkpt>
      <trkpt lat="48.3171" lon="2.70888">
        <ele>63.12</ele>
        <time>2014-06-03T11:55:19Z</time>
      </trkpt>
      <trkpt lat="48.31692" lon="2.70881">
        <ele>60.05</ele>
        <time>2014-06-03T11:55:30Z</time>
      </trkpt>
      <trkpt lat="48.31674" lon="2.70877">
        <ele>59.04</ele>
        <time>2014-06-03T11:55:41Z</time>
      </trkpt>
      <trkpt lat="48.31661" lon="2.70857">
        <ele>59</ele>
        <time>2014-06-03T11:56:31Z</time>
      </trkpt>
      <trkpt lat="48.31646" lon="2.70841">
        <ele>58.6</ele>
        <time>2014-06-03T11:56:50Z</time>
      </trkpt>
      <trkpt lat="48.31626" lon="2.70838">
        <ele>57.04</ele>
        <time>2014-06-03T11:57:06Z</time>
      </trkpt>
      <trkpt lat="48.31608" lon="2.70831">
        <ele>58.32</ele>
        <time>2014-06-03T11:57:20Z</time>
      </trkpt>
      <trkpt lat="48.31591" lon="2.70822">
        <ele>60.55</ele>
        <time>2014-06-03T11:57:38Z</time>
      </trkpt>
      <trkpt lat="48.31573" lon="2.70819">
        <ele>64.12</ele>
        <time>2014-06-03T11:57:55Z</time>
      </trkpt>
      <trkpt lat="48.31554" lon="2.7082">
        <ele>62.29</ele>
        <time>2014-06-03T11:58:12Z</time>
      </trkpt>
      <trkpt lat="48.31536" lon="2.70823">
        <ele>57.61</ele>
        <time>2014-06-03T11:58:47Z</time>
      </trkpt>
      <trkpt lat="48.31518" lon="2.70814">
        <ele>57.84</ele>
        <time>2014-06-03T11:59:01Z</time>
      </trkpt>
      <trkpt lat="48.31501" lon="2.70802">
        <ele>56.07</ele>
        <time>2014-06-03T11:59:14Z</time>
      </trkpt>
      <trkpt lat="48.31482" lon="2.70789">
        <ele>60.27</ele>
        <time>2014-06-03T11:59:24Z</time>
      </trkpt>
      <trkpt lat="48.31465" lon="2.70779">
        <ele>60.27</ele>
        <time>2014-06-03T11:59:36Z</time>
      </trkpt>
      <trkpt lat="48.31448" lon="2.70771">
        <ele>63.34</ele>
        <time>2014-06-03T11:59:52Z</time>
      </trkpt>
      <trkpt lat="48.3143" lon="2.70768">
        <ele>58.72</ele>
        <time>2014-06-03T12:00:09Z</time>
      </trkpt>
      <trkpt lat="48.31414" lon="2.70754">
        <ele>55.4</ele>
        <time>2014-06-03T12:00:26Z</time>
      </trkpt>
      <trkpt lat="48.31395" lon="2.70752">
        <ele>54.11</ele>
        <time>2014-06-03T12:00:43Z</time>
      </trkpt>
      <trkpt lat="48.31377" lon="2.70754">
        <ele>52.05</ele>
        <time>2014-06-03T12:00:58Z</time>
      </trkpt>
      <trkpt lat="48.31366" lon="2.70731">
        <ele>53.97</ele>
        <time>2014-06-03T12:01:14Z</time>
      </trkpt>
    </trkseg>
  </trk>
</gpx>